Flight Track Log - Related Links

Times and Time Zones

All times are in EDT time to prevent confusion due to time zone crossing. See the DAL268 flight status page for this flight to view local times or setup timezone preferences in your user account.

Time Position Orientation Groundspeed Altitude Reporting Facility
EDT Latitude Longitude Course Direction KTS MPH feet Rate Location/Type
Fri 12:25:57 AM 40.6330 -73.7800 North  Level FlightAware ADS-B
Fri 12:36:00 AM 40.9392 -73.5000 North  Level FlightAware Approximate
Fri 12:42:33 AM 40.6350 -73.7720 208° Southwest 125 144  Level FlightAware ADS-B
Fri 12:42:59 AM 40.6180 -73.7850 210° Southwest 161 185 400 1,565 Climbing FlightAware ADS-B
Fri 12:43:19 AM 40.6060 -73.7950 212° Southwest 155 178 1,200 1,800 Climbing FlightAware ADS-B
Fri 12:43:39 AM 40.5920 -73.8060 211° Southwest 176 203 1,600 1,000 Climbing FlightAware ADS-B
Fri 12:43:55 AM 40.5800 -73.8130 204° Southwest 199 229 1,800 720 Climbing FlightAware ADS-B
Fri 12:44:04 AM 40.5720 -73.8150 191° South 210 242 1,900 1,167 Climbing FlightAware ADS-B
Fri 12:44:31 AM 40.5440 -73.8040 163° South 250 288 2,500 1,385 Climbing FlightAware ADS-B
Fri 12:44:43 AM 40.5330 -73.7920 140° Southeast 265 305 2,800 1,500 Climbing FlightAware ADS-B
Fri 12:44:51 AM 40.5260 -73.7820 133° Southeast 274 315 3,000 1,500 Climbing FlightAware ADS-B
Fri 12:44:59 AM 40.5206 -73.7708 122° Southeast 282 325 3,200 2,000 Climbing FlightAware ADS-B
Fri 12:45:03 AM 40.5176 -73.7637 119° Southeast 286 329 3,400 2,700 Climbing FlightAware ADS-B
Fri 12:45:19 AM 40.5115 -73.7375 107° East 287 330 4,100 2,667 Climbing FlightAware ADS-B
Fri 12:45:30 AM 40.5121 -73.7178 88° East 299 344 4,600 2,571 Climbing FlightAware ADS-B
Fri 12:45:33 AM 40.5130 -73.7123 78° East 301 346 4,700 1,500 Climbing FlightAware ADS-B
Fri 12:45:38 AM 40.5154 -73.7032 71° East 303 349 4,800 1,333 Climbing FlightAware ADS-B
Fri 12:45:42 AM 40.5180 -73.6959 65° Northeast 305 351 4,900 1,333 Climbing FlightAware ADS-B
Fri 12:45:47 AM 40.5209 -73.6893 60° Northeast 305 351 5,000 1,200 Climbing FlightAware ADS-B
Fri 12:45:52 AM 40.5251 -73.6815 55° Northeast 309 356 5,100 1,200 Climbing FlightAware ADS-B
Fri 12:45:57 AM 40.5297 -73.6744 50° Northeast 312 359 5,200 2,100 Climbing FlightAware ADS-B
Fri 12:46:12 AM 40.5450 -73.6539 46° Northeast 315 362 5,800 2,595 Climbing FlightAware ADS-B
Fri 12:46:34 AM 40.5688 -73.6237 44° Northeast 320 368 6,800 2,757 Climbing FlightAware ADS-B
Fri 12:46:49 AM 40.5851 -73.6025 45° Northeast 324 373 7,500 2,727 Climbing FlightAware ADS-B
Fri 12:46:56 AM 40.5926 -73.5931 44° Northeast 328 377 7,800 2,182 Climbing FlightAware ADS-B
Fri 12:47:00 AM 40.5972 -73.5876 42° Northeast 329 379 7,900 2,250 Climbing FlightAware ADS-B
Fri 12:47:04 AM 40.6019 -73.5829 37° Northeast 330 380 8,100 2,308 Climbing FlightAware ADS-B
Fri 12:47:13 AM 40.6139 -73.5731 32° Northeast 334 384 8,400 2,750 Climbing FlightAware ADS-B
Fri 12:47:28 AM 40.6346 -73.5585 28° Northeast 334 384 9,200 2,903 Climbing FlightAware ADS-B
Fri 12:47:44 AM 40.6572 -73.5454 24° Northeast 335 386 9,900 1,915 Climbing FlightAware ADS-B
Fri 12:48:15 AM 40.7025 -73.5197 23° Northeast 359 413 10,700 1,429 Climbing FlightAware ADS-B
Fri 12:48:47 AM 40.7531 -73.4915 23° Northeast 386 444 11,400 1,521 Climbing FlightAware ADS-B
Fri 12:49:26 AM 40.8180 -73.4540 24° Northeast 411 473 12,500 2,000 Climbing FlightAware ADS-B
Fri 12:49:59 AM 40.8787 -73.4177 24° Northeast 397 457 13,800 2,318 Climbing FlightAware ADS-B
Fri 12:50:10 AM 40.8984 -73.4048 26° Northeast 425 489 14,200 2,100 Climbing FlightAware ADS-B
Fri 12:50:19 AM 40.9127 -73.3938 30° Northeast 427 491 14,500 2,286 Climbing FlightAware ADS-B
Fri 12:50:52 AM 40.9653 -73.3410 37° Northeast 434 499 15,800 2,260 Climbing FlightAware ADS-B
Fri 12:51:36 AM 41.0321 -73.2629 41° Northeast 441 507 17,400 2,080 Climbing FlightAware ADS-B
Fri 12:52:07 AM 41.0799 -73.2074 41° Northeast 449 517 18,400 1,935 Climbing FlightAware ADS-B
Fri 12:52:38 AM 41.1285 -73.1506 41° Northeast 456 525 19,400 1,839 Climbing FlightAware ADS-B
Fri 12:53:09 AM 41.1779 -73.0929 41° Northeast 460 529 20,300 1,714 Climbing FlightAware ADS-B
Fri 12:53:41 AM 41.2308 -73.0311 41° Northeast 467 537 21,200 2,000 Climbing FlightAware ADS-B
Fri 12:54:12 AM 41.2797 -72.9738 41° Northeast 465 535 22,400 1,814 Climbing FlightAware ADS-B
Fri 12:55:07 AM 41.3540 -72.8490 52° Northeast 481 554 23,800 1,451 Climbing FlightAware ADS-B
Fri 12:55:43 AM 41.3960 -72.7580 58° Northeast 489 563 24,600 944 Climbing FlightAware ADS-B
Fri 12:56:36 AM 41.4600 -72.6330 56° Northeast 497 572 25,200 742 Climbing FlightAware ADS-B
Fri 12:57:20 AM 41.5170 -72.5230 55° Northeast 509 586 25,800 1,278 Climbing FlightAware ADS-B
Fri 12:57:49 AM 41.4000 -72.7510 236° Southwest 26,900 1,594 Climbing FlightAware ADS-B
Fri 12:58:24 AM 41.6080 -72.3420 56° Northeast 525 604 27,500 1,014 Climbing FlightAware ADS-B
Fri 12:59:00 AM 41.6510 -72.2510 58° Northeast 530 610 28,100 1,059 Climbing FlightAware ADS-B
Fri 12:59:32 AM 41.6950 -72.1610 57° Northeast 534 615 28,700 1,114 Climbing FlightAware ADS-B
Fri 01:00:10 AM 41.7490 -72.0470 58° Northeast 536 617 29,400 1,235 Climbing FlightAware ADS-B
Fri 01:00:40 AM 41.7880 -71.9650 57° Northeast 536 617 30,100 1,371 Climbing FlightAware ADS-B
Fri 01:01:20 AM 41.8400 -71.8540 58° Northeast 536 617 31,000 1,183 Climbing FlightAware ADS-B
Fri 01:01:51 AM 41.8820 -71.7670 57° Northeast 537 618 31,500 1,135 Climbing FlightAware ADS-B
Fri 01:02:34 AM 41.9390 -71.6460 58° Northeast 535 616 32,400 1,216 Climbing FlightAware ADS-B
Fri 01:03:05 AM 41.9820 -71.5550 58° Northeast 534 615 33,000 514 Climbing FlightAware ADS-B
Fri 01:03:44 AM 42.0300 -71.4520 58° Northeast 534 615 33,000  Level FlightAware ADS-B
Fri 01:04:24 AM 42.0830 -71.3370 58° Northeast 528 608 33,000  Level FlightAware ADS-B
Fri 01:04:59 AM 42.1300 -71.2350 58° Northeast 527 606 33,000  Level FlightAware ADS-B
Fri 01:05:39 AM 42.1810 -71.1240 58° Northeast 528 608 33,000  Level FlightAware ADS-B
Fri 01:06:10 AM 42.2210 -71.0370 58° Northeast 528 608 33,000  Level FlightAware ADS-B
Fri 01:06:44 AM 42.2640 -70.9440 58° Northeast 523 602 33,000  Level FlightAware ADS-B
Fri 01:07:20 AM 42.3130 -70.8390 58° Northeast 528 608 33,000  Level FlightAware ADS-B
Fri 01:07:55 AM 42.3560 -70.7440 58° Northeast 527 606 33,000  Level FlightAware ADS-B
Fri 01:08:31 AM 42.4030 -70.6410 58° Northeast 528 608 33,000  Level FlightAware ADS-B
Fri 01:09:01 AM 42.4400 -70.5610 58° Northeast 531 611 33,000  Level FlightAware ADS-B
Fri 01:09:45 AM 42.4970 -70.4350 58° Northeast 533 613 33,000  Level FlightAware ADS-B
Fri 01:10:15 AM 42.5380 -70.3430 59° Northeast 533 613 33,000  Level FlightAware ADS-B
Fri 01:11:01 AM 42.5950 -70.2160 59° Northeast 534 615 33,000  Level FlightAware ADS-B
Fri 01:11:41 AM 42.6490 -70.0940 59° Northeast 535 616 33,000  Level FlightAware ADS-B
Fri 01:12:16 AM 42.6950 -69.9930 58° Northeast 541 623 33,000  Level FlightAware ADS-B
Fri 01:12:51 AM 42.7390 -69.8920 59° Northeast 537 618 33,000  Level FlightAware ADS-B
Fri 01:13:26 AM 42.7840 -69.7910 59° Northeast 540 621 33,000  Level FlightAware ADS-B
Fri 01:14:01 AM 42.8290 -69.6890 59° Northeast 539 620 33,000  Level FlightAware ADS-B
Fri 01:14:36 AM 42.8740 -69.5870 59° Northeast 539 620 33,000  Level FlightAware ADS-B
Fri 01:15:11 AM 42.9190 -69.4840 59° Northeast 538 619 33,000  Level FlightAware ADS-B
Fri 01:15:46 AM 42.9620 -69.3840 60° Northeast 538 619 33,000  Level FlightAware ADS-B
Fri 01:16:21 AM 43.0070 -69.2820 59° Northeast 537 618 33,000  Level FlightAware ADS-B
Fri 01:17:16 AM 43.0690 -69.1390 59° Northeast 537 618 33,000  Level FlightAware ADS-B
Fri 01:17:55 AM 43.1210 -69.0150 60° Northeast 530 610 33,000  Level FlightAware ADS-B
Fri 01:18:26 AM 43.1620 -68.9190 60° Northeast 530 610 33,000  Level FlightAware ADS-B
Fri 01:19:05 AM 43.2030 -68.8220 60° Northeast 530 610 33,000  Level FlightAware ADS-B
Fri 01:19:41 AM 43.2400 -68.7330 60° Northeast 530 610 33,000  Level FlightAware ADS-B
Fri 01:20:18 AM 43.2790 -68.6420 59° Northeast 530 610 33,000  Level FlightAware ADS-B
Fri 01:20:54 AM 43.3170 -68.5520 60° Northeast 530 610 33,000  Level FlightAware ADS-B
Fri 01:21:31 AM 43.3550 -68.4600 60° Northeast 530 610 33,000  Level FlightAware ADS-B
Fri 01:22:07 AM 43.3930 -68.3710 60° Northeast 530 610 33,000  Level FlightAware ADS-B
Fri 01:22:45 AM 43.4320 -68.2770 60° Northeast 530 610 33,000  Level FlightAware ADS-B
Fri 01:23:21 AM 43.4700 -68.1870 60° Northeast 530 610 33,000  Level FlightAware ADS-B
Fri 01:23:57 AM 43.5070 -68.0970 60° Northeast 530 610 33,000  Level FlightAware ADS-B
Fri 01:24:33 AM 43.5450 -68.0080 59° Northeast 530 610 33,000  Level FlightAware ADS-B
Fri 01:25:09 AM 43.5820 -67.9180 60° Northeast 530 610 33,000  Level FlightAware ADS-B
Fri 01:25:45 AM 43.6200 -67.8280 60° Northeast 530 610 33,000  Level FlightAware ADS-B
Fri 01:26:21 AM 43.6570 -67.7390 60° Northeast 530 610 33,000  Level FlightAware ADS-B
Fri 01:26:57 AM 43.6950 -67.6490 60° Northeast 530 610 33,000  Level FlightAware ADS-B
Fri 01:27:33 AM 43.7320 -67.5590 60° Northeast 530 610 33,000  Level FlightAware ADS-B
Fri 01:28:09 AM 43.7700 -67.4690 60° Northeast 530 610 33,000  Level FlightAware ADS-B
Fri 01:29:26 AM 43.9700 -66.9630 61° Northeast 537 618 33,000  Level FlightAware ADS-B
Fri 01:29:56 AM 44.0050 -66.8760 61° Northeast 537 618 33,000  Level FlightAware ADS-B
Fri 01:30:36 AM 44.0460 -66.7730 61° Northeast 537 618 33,000  Level FlightAware ADS-B
Fri 01:31:06 AM 44.0890 -66.6650 61° Northeast 535 616 33,000  Level FlightAware ADS-B
Fri 01:31:42 AM 44.1280 -66.5660 61° Northeast 535 616 33,000  Level FlightAware ADS-B
Fri 01:32:32 AM 44.1860 -66.4190 61° Northeast 533 613 33,000  Level FlightAware ADS-B
Fri 01:33:22 AM 44.2470 -66.2640 61° Northeast 532 612 33,000  Level FlightAware ADS-B
Fri 01:34:12 AM 44.3060 -66.1110 62° Northeast 532 612 33,000  Level FlightAware ADS-B
Fri 01:34:57 AM 44.3570 -65.9810 61° Northeast 531 611 33,000  Level FlightAware ADS-B
Fri 01:35:28 AM 44.3970 -65.8760 62° Northeast 531 611 33,000  Level FlightAware ADS-B
Fri 01:36:00 AM 44.4340 -65.7770 62° Northeast 531 611 33,000  Level FlightAware ADS-B
Fri 01:36:35 AM 44.4750 -65.6710 62° Northeast 530 610 33,000  Level FlightAware ADS-B
Fri 01:37:09 AM 44.5130 -65.5680 63° Northeast 467 537 33,000  Level FlightAware ADS-B
Fri 01:37:58 AM 44.5610 -65.4440 61° Northeast 528 608 33,000  Level FlightAware ADS-B
Fri 01:38:30 AM 44.6020 -65.3350 62° Northeast 525 604 33,000  Level FlightAware ADS-B
Fri 01:39:06 AM 44.6470 -65.2140 62° Northeast 522 601 33,000  Level FlightAware ADS-B
Fri 01:39:42 AM 44.6880 -65.1060 62° Northeast 521 600 33,000  Level FlightAware ADS-B
Fri 01:40:17 AM 44.7270 -65.0030 62° Northeast 521 600 33,000  Level FlightAware ADS-B
Fri 01:40:53 AM 44.7670 -64.8950 62° Northeast 522 601 33,000  Level FlightAware ADS-B
Fri 01:41:33 AM 44.8120 -64.7720 63° Northeast 522 601 33,000  Level FlightAware ADS-B
Fri 01:42:14 AM 44.8580 -64.6470 63° Northeast 522 601 33,000  Level FlightAware ADS-B
Fri 01:42:59 AM 44.9070 -64.5150 62° Northeast 521 600 33,000  Level FlightAware ADS-B
Fri 01:43:35 AM 44.9470 -64.4040 63° Northeast 520 598 33,000  Level FlightAware ADS-B
Fri 01:44:07 AM 44.9810 -64.3100 63° Northeast 520 598 33,000  Level FlightAware ADS-B
Fri 01:44:42 AM 45.0180 -64.2090 63° Northeast 520 598 33,000  Level FlightAware ADS-B
Fri 01:45:15 AM 45.0550 -64.1050 63° Northeast 521 600 33,000  Level FlightAware ADS-B
Fri 01:45:51 AM 45.0950 -63.9940 63° Northeast 520 598 33,000  Level FlightAware ADS-B
Fri 01:46:26 AM 45.1320 -63.8900 63° Northeast 520 598 33,000  Level FlightAware ADS-B
Fri 01:47:01 AM 45.1710 -63.7800 63° Northeast 521 600 33,000  Level FlightAware ADS-B
Fri 01:47:36 AM 45.2080 -63.6750 63° Northeast 522 601 33,000  Level FlightAware ADS-B
Fri 01:48:11 AM 45.2450 -63.5690 64° Northeast 523 602 33,000  Level FlightAware ADS-B
Fri 01:48:46 AM 45.2840 -63.4580 63° Northeast 523 602 33,000  Level FlightAware ADS-B
Fri 01:49:21 AM 45.3220 -63.3490 64° Northeast 524 603 33,000  Level FlightAware ADS-B
Fri 01:49:56 AM 45.3590 -63.2430 64° Northeast 524 603 33,000  Level FlightAware ADS-B
Fri 01:50:31 AM 45.3950 -63.1390 64° Northeast 524 603 33,000  Level FlightAware ADS-B
Fri 01:51:05 AM 45.4230 -63.0560 64° Northeast 524 603 33,000  Level FlightAware ADS-B
Fri 01:51:41 AM 45.4560 -62.9610 64° Northeast 524 603 33,000  Level FlightAware ADS-B
Fri 01:52:17 AM 45.4880 -62.8660 64° Northeast 524 603 33,000  Level FlightAware ADS-B
Fri 01:52:53 AM 45.5210 -62.7710 64° Northeast 524 603 33,000  Level FlightAware ADS-B
Fri 01:53:29 AM 45.5540 -62.6750 64° Northeast 524 603 33,000  Level FlightAware ADS-B
Fri 01:54:06 AM 45.5870 -62.5780 64° Northeast 524 603 33,000  Level FlightAware ADS-B
Fri 01:54:42 AM 45.6190 -62.4820 64° Northeast 524 603 33,000  Level FlightAware ADS-B
Fri 01:55:18 AM 45.6520 -62.3870 64° Northeast 524 603 33,000  Level FlightAware ADS-B
Fri 01:55:54 AM 45.6840 -62.2910 64° Northeast 524 603 33,000  Level FlightAware ADS-B
Fri 01:56:30 AM 45.7170 -62.1960 64° Northeast 524 603 33,000  Level FlightAware ADS-B
Fri 01:57:07 AM 45.7500 -62.0980 64° Northeast 524 603 33,000  Level FlightAware ADS-B
Fri 01:57:44 AM 45.7840 -62.0000 64° Northeast 524 603 33,000  Level FlightAware ADS-B
Fri 01:58:40 AM 45.9050 -61.6470 64° Northeast 511 588 33,000  Level FlightAware ADS-B
Fri 01:59:19 AM 45.9480 -61.5190 64° Northeast 511 588 33,000  Level FlightAware ADS-B
Fri 01:59:55 AM 45.9840 -61.4080 65° Northeast 510 587 33,000  Level FlightAware ADS-B
Fri 02:00:27 AM 46.0170 -61.3100 64° Northeast 510 587 33,000  Level FlightAware ADS-B
Fri 02:01:03 AM 46.0520 -61.2000 65° Northeast 507 583 33,000  Level FlightAware ADS-B
Fri 02:01:39 AM 46.0890 -61.0880 64° Northeast 507 583 33,000  Level FlightAware ADS-B
Fri 02:02:12 AM 46.1200 -60.9910 65° Northeast 506 582 33,000  Level FlightAware ADS-B
Fri 02:02:49 AM 46.1580 -60.8750 65° Northeast 506 582 33,000  Level FlightAware ADS-B
Fri 02:03:25 AM 46.1940 -60.7630 65° Northeast 506 582 33,000  Level FlightAware ADS-B
Fri 02:03:57 AM 46.2250 -60.6660 65° Northeast 507 583 33,000  Level FlightAware ADS-B
Fri 02:04:33 AM 46.2610 -60.5540 65° Northeast 507 583 33,000  Level FlightAware ADS-B
Fri 02:05:09 AM 46.2960 -60.4450 65° Northeast 507 583 33,000  Level FlightAware ADS-B
Fri 02:05:41 AM 46.3270 -60.3470 65° Northeast 508 585 33,000  Level FlightAware ADS-B
Fri 02:06:19 AM 46.3650 -60.2270 65° Northeast 509 586 33,000  Level FlightAware ADS-B
Fri 02:06:51 AM 46.3960 -60.1290 65° Northeast 510 587 33,000  Level FlightAware ADS-B
Fri 02:07:27 AM 46.4310 -60.0160 66° East 512 589 33,000  Level FlightAware ADS-B
Fri 02:08:05 AM 46.4670 -59.8990 66° East 513 590 33,000  Level FlightAware ADS-B
Fri 02:08:37 AM 46.4990 -59.7960 66° East 514 592 33,000  Level FlightAware ADS-B
Fri 02:09:13 AM 46.5350 -59.6820 65° Northeast 514 592 33,000  Level FlightAware ADS-B
Fri 02:09:49 AM 46.5690 -59.5720 66° East 513 590 33,000  Level FlightAware ADS-B
Fri 02:10:25 AM 46.6040 -59.4580 66° East 513 590 33,000  Level FlightAware ADS-B
Fri 02:10:57 AM 46.6350 -59.3570 66° East 512 589 33,000  Level FlightAware ADS-B
Fri 02:11:33 AM 46.6700 -59.2430 66° East 512 589 33,000  Level FlightAware ADS-B
Fri 02:12:07 AM 46.7030 -59.1350 66° East 512 589 33,000  Level FlightAware ADS-B
Fri 02:12:45 AM 46.7390 -59.0150 66° East 512 589 33,000  Level FlightAware ADS-B
Fri 02:13:17 AM 46.7690 -58.9120 67° East 512 589 33,000  Level FlightAware ADS-B
Fri 02:13:53 AM 46.8030 -58.8000 66° East 513 590 33,000  Level FlightAware ADS-B
Fri 02:14:29 AM 46.8370 -58.6850 67° East 514 592 33,000  Level FlightAware ADS-B
Fri 02:15:01 AM 46.8660 -58.5880 66° East 515 593 33,000  Level FlightAware ADS-B
Fri 02:15:33 AM 46.8960 -58.4880 66° East 516 594 33,000  Level FlightAware ADS-B
Fri 02:16:10 AM 46.9260 -58.3870 66° East 516 594 33,000  Level FlightAware ADS-B
Fri 02:16:47 AM 46.9570 -58.2870 66° East 516 594 33,000  Level FlightAware ADS-B
Fri 02:17:23 AM 46.9860 -58.1890 67° East 516 594 33,000  Level FlightAware ADS-B
Fri 02:17:58 AM 47.0330 -58.0160 68° East 520 598 33,000  Level FlightAware ADS-B
Fri 02:18:28 AM 47.0620 -57.9180 66° East 519 597 33,000  Level FlightAware ADS-B
Fri 02:19:13 AM 47.1020 -57.7800 67° East 520 598 33,000  Level FlightAware ADS-B
Fri 02:19:44 AM 47.1320 -57.6720 68° East 520 598 33,000  Level FlightAware ADS-B
Fri 02:20:28 AM 47.1730 -57.5270 67° East 522 601 33,000  Level FlightAware ADS-B
Fri 02:21:03 AM 47.2040 -57.4160 68° East 522 601 33,000  Level FlightAware ADS-B
Fri 02:21:36 AM 47.2350 -57.3080 67° East 523 602 33,000  Level FlightAware ADS-B
Fri 02:22:18 AM 47.2750 -57.1670 67° East 525 604 33,000  Level FlightAware ADS-B
Fri 02:22:58 AM 47.3120 -57.0360 67° East 523 602 33,000  Level FlightAware ADS-B
Fri 02:23:28 AM 47.3400 -56.9340 68° East 524 603 33,000  Level FlightAware ADS-B
Fri 02:24:08 AM 47.3750 -56.8110 67° East 524 603 33,000  Level FlightAware ADS-B
Fri 02:24:43 AM 47.4090 -56.6870 68° East 525 604 33,000  Level FlightAware ADS-B
Fri 02:25:18 AM 47.4410 -56.5720 68° East 525 604 33,000  Level FlightAware ADS-B
Fri 02:25:53 AM 47.4730 -56.4560 68° East 525 604 33,000  Level FlightAware ADS-B
Fri 02:26:33 AM 47.5100 -56.3210 68° East 523 602 33,000  Level FlightAware ADS-B
Fri 02:27:08 AM 47.5410 -56.2060 68° East 522 601 33,000  Level FlightAware ADS-B
Fri 02:27:43 AM 47.5690 -56.1000 69° East 521 600 33,000  Level FlightAware ADS-B
Fri 02:28:23 AM 47.6070 -55.9590 68° East 521 600 33,000  Level FlightAware ADS-B
Fri 02:28:53 AM 47.6320 -55.8650 68° East 520 598 33,000  Level FlightAware ADS-B
Fri 02:29:29 AM 47.6640 -55.7460 68° East 519 597 33,000  Level FlightAware ADS-B
Fri 02:30:08 AM 47.6990 -55.6110 69° East 518 596 33,000  Level FlightAware ADS-B
Fri 02:30:38 AM 47.7250 -55.5130 68° East 517 595 33,000  Level FlightAware ADS-B
Fri 02:31:13 AM 47.7570 -55.3940 68° East 517 595 33,000  Level FlightAware ADS-B
Fri 02:31:48 AM 47.7860 -55.2790 69° East 516 594 33,000  Level FlightAware ADS-B
Fri 02:32:23 AM 47.8170 -55.1620 68° East 516 594 33,000  Level FlightAware ADS-B
Fri 02:32:59 AM 47.8470 -55.0460 69° East 515 593 33,000  Level FlightAware ADS-B
Fri 02:33:33 AM 47.8770 -54.9300 69° East 516 594 33,000  Level FlightAware ADS-B
Fri 02:34:08 AM 47.9060 -54.8130 70° East 516 594 33,000  Level FlightAware ADS-B
Fri 02:34:48 AM 47.9400 -54.6810 69° East 516 594 33,000  Level FlightAware ADS-B
Fri 02:35:18 AM 47.9660 -54.5810 69° East 517 595 33,000  Level FlightAware ADS-B
Fri 02:35:53 AM 47.9950 -54.4650 69° East 518 596 33,000  Level FlightAware ADS-B
Fri 02:36:33 AM 48.0290 -54.3300 69° East 519 597 33,000  Level FlightAware ADS-B
Fri 02:37:04 AM 48.0540 -54.2300 69° East 519 597 33,000  Level FlightAware ADS-B
Fri 02:37:38 AM 48.0830 -54.1120 70° East 520 598 33,000  Level FlightAware ADS-B
Fri 02:38:18 AM 48.1170 -53.9760 69° East 520 598 33,000  Level FlightAware ADS-B
Fri 02:38:48 AM 48.1410 -53.8760 70° East 522 601 33,000  Level FlightAware ADS-B
Fri 02:39:23 AM 48.1700 -53.7570 70° East 522 601 33,000  Level FlightAware ADS-B
Fri 02:39:58 AM 48.2000 -53.6370 69° East 524 603 33,000  Level FlightAware ADS-B
Fri 02:40:33 AM 48.2280 -53.5190 70° East 523 602 33,000  Level FlightAware ADS-B
Fri 02:41:13 AM 48.2600 -53.3880 70° East 523 602 33,000  Level FlightAware ADS-B
Fri 02:41:43 AM 48.2860 -53.2780 70° East 523 602 33,000  Level FlightAware ADS-B
Fri 02:42:23 AM 48.3180 -53.1430 70° East 523 602 33,000  Level FlightAware ADS-B
Fri 02:42:53 AM 48.3420 -53.0380 71° East 523 602 33,000  Level FlightAware ADS-B
Fri 02:43:28 AM 48.3690 -52.9260 70° East 524 603 33,000  Level FlightAware ADS-B
Fri 02:44:08 AM 48.4030 -52.7810 70° East 525 604 33,000  Level FlightAware ADS-B
Fri 02:44:47 AM 48.4340 -52.6490 70° East 524 603 33,000 79 Level FlightAware ADS-B
Fri 02:45:24 AM 48.4630 -52.5200 71° East 522 601 33,100 329 Climbing FlightAware ADS-B
Fri 02:46:00 AM 48.4910 -52.3980 71° East 515 593 33,400 609 Climbing FlightAware ADS-B
Fri 02:46:33 AM 48.5160 -52.2870 71° East 515 593 33,800 706 Climbing FlightAware ADS-B
Fri 02:47:08 AM 48.5440 -52.1650 71° East 521 600 34,200 686 Climbing FlightAware ADS-B
Fri 02:47:43 AM 48.5710 -52.0430 71° East 523 602 34,600 592 Climbing FlightAware ADS-B
Fri 02:48:19 AM 48.5970 -51.9290 71° East 523 602 34,900 343 Climbing FlightAware ADS-B
Fri 02:48:53 AM 48.6250 -51.8040 71° East 524 603 35,000 87 Climbing FlightAware ADS-B
Fri 02:49:28 AM 48.6510 -51.6820 72° East 523 602 35,000  Level FlightAware ADS-B
Fri 02:50:03 AM 48.6780 -51.5630 71° East 525 604 35,000  Level FlightAware ADS-B
Fri 02:50:38 AM 48.7050 -51.4360 72° East 525 604 35,000  Level FlightAware ADS-B
Fri 02:51:20 AM 48.7340 -51.3020 72° East 526 605 35,000  Level FlightAware ADS-B
Fri 02:51:53 AM 48.7600 -51.1810 72° East 528 608 35,000  Level FlightAware ADS-B
Fri 02:52:28 AM 48.7850 -51.0640 72° East 529 609 35,000  Level FlightAware ADS-B
Fri 02:53:03 AM 48.8140 -50.9300 72° East 531 611 35,000  Level FlightAware ADS-B
Fri 02:53:38 AM 48.8390 -50.8110 72° East 531 611 35,000  Level FlightAware ADS-B
Fri 02:54:28 AM 48.8780 -50.6290 72° East 533 613 35,000  Level FlightAware ADS-B
Fri 02:55:03 AM 48.9040 -50.5050 72° East 532 612 35,000  Level FlightAware ADS-B
Fri 02:55:38 AM 48.9300 -50.3800 72° East 532 612 35,000  Level FlightAware ADS-B
Fri 02:56:18 AM 48.9590 -50.2390 73° East 532 612 35,000  Level FlightAware ADS-B
Fri 02:57:05 AM 48.9900 -50.0940 72° East 533 613 35,000  Level FlightAware ADS-B
Fri 02:57:41 AM 49.0130 -49.9840 72° East 533 613 35,000  Level FlightAware ADS-B
Fri 02:58:17 AM 49.0360 -49.8750 72° East 533 613 35,000  Level FlightAware ADS-B
Fri 02:58:53 AM 49.0600 -49.7650 72° East 533 613 35,000  Level FlightAware ADS-B
Fri 02:59:29 AM 49.0830 -49.6560 72° East 533 613 35,000  Level FlightAware ADS-B
Fri 03:00:05 AM 49.1060 -49.5460 72° East 533 613 35,000  Level FlightAware ADS-B
Fri 03:00:41 AM 49.1300 -49.4360 72° East 533 613 35,000  Level FlightAware ADS-B
Fri 03:01:17 AM 49.1530 -49.3270 72° East 533 613 35,000  Level FlightAware ADS-B
Fri 03:01:53 AM 49.1760 -49.2170 72° East 533 613 35,000  Level FlightAware ADS-B
Fri 03:02:29 AM 49.1990 -49.1070 72° East 533 613 35,000  Level FlightAware ADS-B
Fri 03:03:05 AM 49.2230 -48.9970 71° East 533 613 35,000  Level FlightAware ADS-B
Fri 03:03:41 AM 49.2460 -48.8870 72° East 533 613 35,000  Level FlightAware ADS-B
Fri 03:04:18 AM 49.2700 -48.7740 72° East 533 613 35,000  Level FlightAware ADS-B
Fri 03:04:54 AM 49.2930 -48.6640 72° East 533 613 35,000  Level FlightAware ADS-B
Fri 03:05:30 AM 49.3170 -48.5540 71° East 533 613 35,000  Level FlightAware ADS-B
Fri 03:06:00 AM 49.0000 -50.0000 69° East 538 619 35,000  Level ETMS Enhanced Traffic Management System
Fri 03:06:06 AM 49.3400 -48.4440 72° East 533 613 35,000  Level FlightAware ADS-B
Fri 03:06:50 AM 49.4500 -47.9167 69° East 540 621 35,000  Level Gander Center
Fri 03:07:06 AM 49.4880 -47.9510 65° Northeast 35,000  Level FlightAware ADS-B
Fri 03:07:50 AM 49.5000 -47.7167 69° East 540 621 35,000  Level Gander Center
Fri 03:08:50 AM 49.5500 -47.5000 70° East 540 621 35,000  Level Gander Center
Fri 03:09:50 AM 49.6000 -47.3000 69° East 540 621 35,000  Level Gander Center
Fri 03:11:00 AM 49.6573 -47.0487 71° East  Level FlightAware Approximate
Fri 03:18:00 AM 49.9898 -45.5288 71° East  Level FlightAware Approximate
Fri 03:19:00 AM 50.0356 -45.3100 72° East  Level FlightAware Approximate
Fri 03:20:00 AM 50.0811 -45.0908 72° East  Level FlightAware Approximate
Fri 03:21:00 AM 50.1261 -44.8711 72° East  Level FlightAware Approximate
Fri 03:22:00 AM 50.1707 -44.6511 72° East  Level FlightAware Approximate
Fri 03:23:00 AM 50.2150 -44.4306 73° East  Level FlightAware Approximate
Fri 03:24:00 AM 50.2587 -44.2097 73° East  Level FlightAware Approximate
Fri 03:25:00 AM 50.3021 -43.9884 73° East  Level FlightAware Approximate
Fri 03:26:00 AM 50.3451 -43.7667 73° East  Level FlightAware Approximate
Fri 03:27:00 AM 50.3876 -43.5447 73° East  Level FlightAware Approximate
Fri 03:28:00 AM 50.4297 -43.3222 73° East  Level FlightAware Approximate
Fri 03:29:00 AM 50.4714 -43.0993 74° East  Level FlightAware Approximate
Fri 03:30:00 AM 50.5126 -42.8760 74° East  Level FlightAware Approximate
Fri 03:31:00 AM 50.5534 -42.6524 74° East  Level FlightAware Approximate
Fri 03:32:00 AM 50.5938 -42.4283 74° East  Level FlightAware Approximate
Fri 03:33:00 AM 50.6335 -42.2057 74° East  Level FlightAware Approximate
Fri 03:34:00 AM 50.6727 -41.9827 74° East  Level FlightAware Approximate
Fri 03:35:00 AM 50.7115 -41.7593 75° East  Level FlightAware Approximate
Fri 03:36:00 AM 50.7499 -41.5355 75° East  Level FlightAware Approximate
Fri 03:37:00 AM 50.7878 -41.3114 75° East  Level FlightAware Approximate
Fri 03:38:00 AM 50.8253 -41.0869 75° East  Level FlightAware Approximate
Fri 03:39:00 AM 50.8624 -40.8621 75° East  Level FlightAware Approximate
Fri 03:40:00 AM 50.8990 -40.6369 75° East  Level FlightAware Approximate
Fri 03:41:00 AM 50.9352 -40.4113 76° East  Level FlightAware Approximate
Fri 03:42:00 AM 50.9710 -40.1854 76° East  Level FlightAware Approximate
Fri 03:43:00 AM 51.0096 -39.9604 69° East  Level FlightAware Approximate
Fri 03:44:00 AM 51.0621 -39.7425 69° East  Level FlightAware Approximate
Fri 03:45:00 AM 51.1142 -39.5241 69° East  Level FlightAware Approximate
Fri 03:45:00 AM 51.0000 -40.0000 68° East 582 670 35,000  Level ETMS Enhanced Traffic Management System
Fri 03:46:00 AM 51.1660 -39.3053 69° East  Level FlightAware Approximate
Fri 03:47:00 AM 51.2173 -39.0859 69° East  Level FlightAware Approximate
Fri 03:48:00 AM 51.2681 -38.8661 70° East  Level FlightAware Approximate
Fri 03:49:00 AM 51.3200 -38.6465 69° East  Level FlightAware Approximate
Fri 03:50:00 AM 51.3719 -38.4269 69° East  Level FlightAware Approximate
Fri 03:51:00 AM 51.5783 -37.5857 70° East 582 670 35,000  Level FlightAware Transoceanic
Fri 03:52:00 AM 51.6334 -37.3410 70° East 582 670 35,000  Level FlightAware Transoceanic
Fri 03:53:00 AM 51.6880 -37.0956 70° East 582 670 35,000  Level FlightAware Transoceanic
Fri 03:54:00 AM 51.7420 -36.8497 71° East 582 670 35,000  Level FlightAware Transoceanic
Fri 03:55:00 AM 51.7956 -36.6032 71° East 582 670 35,000  Level FlightAware Transoceanic
Fri 03:56:00 AM 51.8486 -36.3561 71° East 582 670 35,000  Level FlightAware Transoceanic
Fri 03:57:00 AM 51.9011 -36.1084 71° East 582 670 35,000  Level FlightAware Transoceanic
Fri 03:58:00 AM 51.9531 -35.8602 71° East 582 670 35,000  Level FlightAware Transoceanic
Fri 03:59:00 AM 52.0045 -35.6114 72° East 582 670 35,000  Level FlightAware Transoceanic
Fri 04:00:00 AM 52.0555 -35.3619 72° East 582 670 35,000  Level FlightAware Transoceanic
Fri 04:01:00 AM 52.1059 -35.1120 72° East 582 670 35,000  Level FlightAware Transoceanic
Fri 04:02:00 AM 52.1558 -34.8615 72° East 582 670 35,000  Level FlightAware Transoceanic
Fri 04:03:00 AM 52.2051 -34.6104 72° East 582 670 35,000  Level FlightAware Transoceanic
Fri 04:04:00 AM 52.2539 -34.3587 73° East 582 670 35,000  Level FlightAware Transoceanic
Fri 04:05:00 AM 52.3022 -34.1065 73° East 582 670 35,000  Level FlightAware Transoceanic
Fri 04:06:00 AM 52.3499 -33.8538 73° East 582 670 35,000  Level FlightAware Transoceanic
Fri 04:07:00 AM 52.3971 -33.6005 73° East 582 670 35,000  Level FlightAware Transoceanic
Fri 04:08:00 AM 52.4438 -33.3467 73° East 582 670 35,000  Level FlightAware Transoceanic
Fri 04:09:00 AM 52.4899 -33.0924 74° East 582 670 35,000  Level FlightAware Transoceanic
Fri 04:10:00 AM 52.5354 -32.8375 74° East 582 670 35,000  Level FlightAware Transoceanic
Fri 04:11:00 AM 52.5805 -32.5821 74° East 582 670 35,000  Level FlightAware Transoceanic
Fri 04:12:00 AM 52.6249 -32.3261 74° East 582 670 35,000  Level FlightAware Transoceanic
Fri 04:13:00 AM 52.6688 -32.0697 74° East 582 670 35,000  Level FlightAware Transoceanic
Fri 04:14:00 AM 52.7122 -31.8127 75° East 582 670 35,000  Level FlightAware Transoceanic
Fri 04:15:00 AM 52.7550 -31.5552 75° East 582 670 35,000  Level FlightAware Transoceanic
Fri 04:16:00 AM 52.7972 -31.2973 75° East 582 670 35,000  Level FlightAware Transoceanic
Fri 04:17:00 AM 52.8389 -31.0388 75° East 582 670 35,000  Level FlightAware Transoceanic
Fri 04:18:00 AM 52.8800 -30.7798 75° East 582 670 35,000  Level FlightAware Transoceanic
Fri 04:19:00 AM 52.9206 -30.5204 76° East 582 670 35,000  Level FlightAware Transoceanic
Fri 04:20:00 AM 52.9606 -30.2604 76° East 582 670 35,000  Level FlightAware Transoceanic
Fri 04:20:00 AM 53.0000 -30.0000 76° East 586 674 35,000  Level ETMS Enhanced Traffic Management System
Fri 04:21:00 AM 52.9964 -30.0241 76° East  Level FlightAware Approximate
Fri 04:22:00 AM 53.0318 -29.7869 76° East  Level FlightAware Approximate
Fri 04:23:00 AM 53.0273 -29.8103 76° East  Level FlightAware Approximate
Fri 04:24:00 AM 53.0611 -29.5723 77° East  Level FlightAware Approximate
Fri 04:25:00 AM 53.0945 -29.3340 77° East  Level FlightAware Approximate
Fri 04:26:00 AM 53.2527 -28.1471 78° East 586 674 35,000  Level FlightAware Transoceanic
Fri 04:27:00 AM 53.2864 -27.8807 78° East 586 674 35,000  Level FlightAware Transoceanic
Fri 04:28:00 AM 53.3195 -27.6138 78° East 586 674 35,000  Level FlightAware Transoceanic
Fri 04:29:00 AM 53.3521 -27.3466 79° East 586 674 35,000  Level FlightAware Transoceanic
Fri 04:30:00 AM 53.3840 -27.0789 79° East 586 674 35,000  Level FlightAware Transoceanic
Fri 04:31:00 AM 53.4154 -26.8108 79° East 586 674 35,000  Level FlightAware Transoceanic
Fri 04:32:00 AM 53.4461 -26.5424 79° East 586 674 35,000  Level FlightAware Transoceanic
Fri 04:33:00 AM 53.4762 -26.2735 79° East 586 674 35,000  Level FlightAware Transoceanic
Fri 04:34:00 AM 53.5058 -26.0043 80° East 586 674 35,000  Level FlightAware Transoceanic
Fri 04:35:00 AM 53.5347 -25.7347 80° East 586 674 35,000  Level FlightAware Transoceanic
Fri 04:36:00 AM 53.5630 -25.4647 80° East 586 674 35,000  Level FlightAware Transoceanic
Fri 04:37:00 AM 53.5908 -25.1944 80° East 586 674 35,000  Level FlightAware Transoceanic
Fri 04:38:00 AM 53.6179 -24.9237 81° East 586 674 35,000  Level FlightAware Transoceanic
Fri 04:39:00 AM 53.6443 -24.6527 81° East 586 674 35,000  Level FlightAware Transoceanic
Fri 04:40:00 AM 53.6702 -24.3814 81° East 586 674 35,000  Level FlightAware Transoceanic
Fri 04:41:00 AM 53.6955 -24.1097 81° East 586 674 35,000  Level FlightAware Transoceanic
Fri 04:42:00 AM 53.7201 -23.8377 81° East 586 674 35,000  Level FlightAware Transoceanic
Fri 04:43:00 AM 53.7442 -23.5654 82° East 586 674 35,000  Level FlightAware Transoceanic
Fri 04:44:00 AM 53.7676 -23.2927 82° East 586 674 35,000  Level FlightAware Transoceanic
Fri 04:45:00 AM 53.7904 -23.0198 82° East 586 674 35,000  Level FlightAware Transoceanic
Fri 04:46:00 AM 53.8126 -22.7466 82° East 586 674 35,000  Level FlightAware Transoceanic
Fri 04:47:00 AM 53.8341 -22.4731 83° East 586 674 35,000  Level FlightAware Transoceanic
Fri 04:48:00 AM 53.8551 -22.1993 83° East 586 674 35,000  Level FlightAware Transoceanic
Fri 04:49:00 AM 53.8754 -21.9253 83° East 586 674 35,000  Level FlightAware Transoceanic
Fri 04:50:00 AM 53.8951 -21.6509 83° East 586 674 35,000  Level FlightAware Transoceanic
Fri 04:51:00 AM 53.9141 -21.3764 83° East 586 674 35,000  Level FlightAware Transoceanic
Fri 04:52:00 AM 53.9326 -21.1016 84° East 586 674 35,000  Level FlightAware Transoceanic
Fri 04:53:00 AM 53.9504 -20.8265 84° East 586 674 35,000  Level FlightAware Transoceanic
Fri 04:54:00 AM 53.9675 -20.5512 84° East 586 674 35,000  Level FlightAware Transoceanic
Fri 04:55:00 AM 53.9841 -20.2757 84° East 586 674 35,000 20 Level FlightAware Transoceanic
Fri 04:56:00 AM 53.9985 -20.0269 84° East  Level FlightAware Approximate
Fri 04:57:00 AM 54.0123 -19.7775 84° East  Level FlightAware Approximate
Fri 04:58:00 AM 53.9877 -19.8043 96° East  Level FlightAware Approximate
Fri 04:59:00 AM 53.9715 -19.5554 96° East  Level FlightAware Approximate
Fri 05:00:00 AM 53.9549 -19.3067 96° East  Level FlightAware Approximate
Fri 05:01:00 AM 53.9377 -19.0582 97° East  Level FlightAware Approximate
Fri 05:02:00 AM 53.9201 -18.8099 97° East  Level FlightAware Approximate
Fri 05:03:00 AM 53.9019 -18.5619 97° East  Level FlightAware Approximate
Fri 05:04:00 AM 53.8832 -18.3140 97° East  Level FlightAware Approximate
Fri 05:05:00 AM 53.8640 -18.0664 97° East  Level FlightAware Approximate
Fri 05:06:00 AM 53.8443 -17.8190 98° East  Level FlightAware Approximate
Fri 05:07:00 AM 53.8240 -17.5719 98° East  Level FlightAware Approximate
Fri 05:08:00 AM 53.8044 -17.3247 97° East  Level FlightAware Approximate
Fri 05:09:00 AM 53.7849 -17.0776 98° East  Level FlightAware Approximate
Fri 05:10:00 AM 53.7649 -16.8307 98° East  Level FlightAware Approximate
Fri 05:11:00 AM 53.7444 -16.5841 98° East  Level FlightAware Approximate
Fri 05:12:00 AM 53.7234 -16.3377 98° East  Level FlightAware Approximate
Fri 05:13:00 AM 53.7018 -16.0916 98° East  Level FlightAware Approximate
Fri 05:14:00 AM 53.6798 -15.8458 99° East  Level FlightAware Approximate
Fri 05:14:09 AM 53.9710 -14.2860 99° East 604 695 35,400  Level FlightAware ADS-B
Fri 05:14:44 AM 53.9480 -14.1260 104° East 600 690 35,700 480 Climbing FlightAware ADS-B
Fri 05:15:24 AM 53.9200 -13.9480 105° East 593 682 36,000 423 Climbing FlightAware ADS-B
Fri 05:15:55 AM 53.8960 -13.8090 106° East 587 676 36,200 455 Climbing FlightAware ADS-B
Fri 05:16:30 AM 53.8680 -13.6520 107° East 582 670 36,500 514 Climbing FlightAware ADS-B
Fri 05:17:05 AM 53.8420 -13.5050 107° East 580 667 36,800 429 Climbing FlightAware ADS-B
Fri 05:17:40 AM 53.8160 -13.3530 106° East 579 666 37,000 171 Climbing FlightAware ADS-B
Fri 05:18:15 AM 53.7890 -13.1970 106° East 579 666 37,000  Level FlightAware ADS-B
Fri 05:19:01 AM 53.7540 -13.0000 107° East 578 665 37,000  Level FlightAware ADS-B
Fri 05:19:35 AM 53.7270 -12.8520 107° East 577 664 37,000  Level FlightAware ADS-B
Fri 05:20:05 AM 53.7040 -12.7210 106° East 574 661 37,000  Level FlightAware ADS-B
Fri 05:20:45 AM 53.6730 -12.5490 107° East 574 661 37,000  Level FlightAware ADS-B
Fri 05:21:16 AM 53.6490 -12.4180 107° East 575 662 37,000  Level FlightAware ADS-B
Fri 05:21:50 AM 53.6230 -12.2730 107° East 576 663 37,000  Level FlightAware ADS-B
Fri 05:22:30 AM 53.5910 -12.1010 107° East 576 663 37,000  Level FlightAware ADS-B
Fri 05:23:00 AM 53.5670 -11.9740 108° East 579 666 37,000  Level FlightAware ADS-B
Fri 05:23:35 AM 53.5380 -11.8180 107° East 582 670 37,000  Level FlightAware ADS-B
Fri 05:24:15 AM 53.5060 -11.6470 107° East 584 672 37,000  Level FlightAware ADS-B
Fri 05:24:50 AM 53.4760 -11.4930 108° East 586 674 37,000  Level FlightAware ADS-B
Fri 05:25:20 AM 53.4520 -11.3660 108° East 587 676 37,000  Level FlightAware ADS-B
Fri 05:25:55 AM 53.4220 -11.2110 108° East 586 674 37,000  Level FlightAware ADS-B
Fri 05:26:30 AM 53.3930 -11.0630 108° East 588 677 37,000  Level FlightAware ADS-B
Fri 05:27:11 AM 53.3580 -10.8860 108° East 588 677 37,000  Level FlightAware ADS-B
Fri 05:27:40 AM 53.3330 -10.7590 108° East 591 680 37,000  Level FlightAware ADS-B
Fri 05:28:15 AM 53.3030 -10.6040 108° East 592 681 37,000  Level FlightAware ADS-B
Fri 05:28:55 AM 53.2710 -10.4330 107° East 593 682 37,000  Level FlightAware ADS-B
Fri 05:29:25 AM 53.2450 -10.3010 108° East 591 680 37,000  Level FlightAware ADS-B
Fri 05:30:00 AM 53.2150 -10.1500 108° East 591 680 37,000  Level FlightAware ADS-B
Fri 05:30:40 AM 53.1790 -9.9750 109° East 593 682 37,000  Level FlightAware ADS-B
Fri 05:31:10 AM 53.1530 -9.8480 109° East 594 684 37,000  Level FlightAware ADS-B
Fri 05:31:45 AM 53.1210 -9.6960 109° East 594 684 37,000  Level FlightAware ADS-B
Fri 05:32:25 AM 53.0850 -9.5240 109° East 592 681 37,000  Level FlightAware ADS-B
Fri 05:32:55 AM 53.0570 -9.3970 110° East 593 682 37,000  Level FlightAware ADS-B
Fri 05:33:30 AM 53.0240 -9.2450 110° East 592 681 37,000  Level FlightAware ADS-B
Fri 05:34:10 AM 52.9860 -9.0730 110° East 594 684 37,000  Level FlightAware ADS-B
Fri 05:34:40 AM 52.9580 -8.9450 110° East 594 684 37,000  Level FlightAware ADS-B
Fri 05:35:20 AM 52.9200 -8.7730 110° East 594 684 37,000  Level FlightAware ADS-B
Fri 05:35:55 AM 52.8870 -8.6250 110° East 598 688 37,000  Level FlightAware ADS-B
Fri 05:36:25 AM 52.8580 -8.4940 110° East 598 688 37,000  Level FlightAware ADS-B
Fri 05:37:00 AM 52.8250 -8.3480 110° East 597 687 37,000  Level FlightAware ADS-B
Fri 05:37:02 AM 52.8067 -8.3379 110° East 490 564 37,000  Level FlightAware UK
Fri 05:37:32 AM 52.7775 -8.2097 110° East 488 562 37,000  Level FlightAware UK
Fri 05:37:40 AM 52.7850 -8.1720 110° East 598 688 37,000  Level FlightAware ADS-B
Fri 05:38:15 AM 52.7530 -8.0290 110° East 597 687 37,000  Level FlightAware ADS-B
Fri 05:38:45 AM 52.7230 -7.9000 111° Southeast 596 686 37,000  Level FlightAware ADS-B
Fri 05:39:20 AM 52.6880 -7.7500 111° Southeast 593 682 37,000  Level FlightAware ADS-B
Fri 05:40:02 AM 52.6290 -7.5727 111° Southeast 484 557 37,000  Level FlightAware UK
Fri 05:40:05 AM 52.6420 -7.5600 111° Southeast 592 681 37,000  Level FlightAware ADS-B
Fri 05:40:45 AM 52.6020 -7.3910 111° Southeast 592 681 37,000  Level FlightAware ADS-B
Fri 05:41:20 AM 52.5660 -7.2420 112° Southeast 592 681 37,000  Level FlightAware ADS-B
Fri 05:41:55 AM 52.5310 -7.0970 112° Southeast 593 682 37,000  Level FlightAware ADS-B
Fri 05:42:33 AM 52.4776 -6.9417 112° Southeast 484 557 37,000  Level FlightAware UK
Fri 05:42:35 AM 52.4900 -6.9280 112° Southeast 595 685 37,000  Level FlightAware ADS-B
Fri 05:43:05 AM 52.4600 -6.8010 111° Southeast 595 685 37,000  Level FlightAware ADS-B
Fri 05:43:44 AM 52.4190 -6.6320 112° Southeast 599 689 37,000  Level FlightAware ADS-B
Fri 05:44:16 AM 52.3860 -6.4970 112° Southeast 601 692 37,000  Level FlightAware ADS-B
Fri 05:44:52 AM 52.3490 -6.3470 112° Southeast 603 694 37,000  Level FlightAware ADS-B
Fri 05:45:30 AM 52.3080 -6.1850 112° Southeast 603 694 37,000  Level FlightAware ADS-B
Fri 05:46:01 AM 52.2770 -6.0620 112° Southeast 604 695 37,000  Level FlightAware ADS-B
Fri 05:46:03 AM 52.2598 -6.0580 112° Southeast 490 564 37,000  Level FlightAware UK
Fri 05:46:33 AM 52.2278 -5.9311 112° Southeast 488 562 37,000  Level FlightAware UK
Fri 05:46:33 AM 52.2430 -5.9270 112° Southeast 603 694 37,000  Level FlightAware ADS-B
Fri 05:47:03 AM 52.1960 -5.8051 112° Southeast 488 562 37,000  Level FlightAware UK
Fri 05:47:14 AM 52.2040 -5.7500 112° Southeast 599 689 37,000  Level FlightAware ADS-B
Fri 05:47:46 AM 52.1850 -5.6050 102° East 598 688 37,000  Level FlightAware ADS-B
Fri 05:48:23 AM 52.1640 -5.4410 102° East 599 689 37,000  Level FlightAware ADS-B
Fri 05:48:58 AM 52.1440 -5.2940 102° East 600 690 37,000  Level FlightAware ADS-B
Fri 05:49:34 AM 52.1190 -5.1300 104° East 601 692 37,000  Level FlightAware ADS-B
Fri 05:50:06 AM 52.0980 -4.9910 104° East 602 693 37,000  Level FlightAware ADS-B
Fri 05:50:09 AM 52.0820 -4.9877 104° East 486 559 37,000  Level FlightAware UK
Fri 05:50:39 AM 52.0620 -4.8562 104° East 486 559 37,000  Level FlightAware UK
Fri 05:50:42 AM 52.0750 -4.8330 104° East 602 693 37,000  Level FlightAware ADS-B
Fri 05:51:06 AM 52.0596 -4.7258 103° East 602 693 37,000  Level FlightAware ADS-B
Fri 05:51:39 AM 52.0254 -4.5912 103° East 488 562 37,000  Level FlightAware UK
Fri 05:51:53 AM 52.0305 -4.5194 103° East 602 693 37,000  Level FlightAware ADS-B
Fri 05:52:32 AM 52.0057 -4.3469 103° East 603 694 37,000  Level FlightAware ADS-B
Fri 05:53:04 AM 51.9850 -4.2070 103° East 602 693 37,000  Level FlightAware ADS-B
Fri 05:53:21 AM 51.9741 -4.1310 103° East 602 693 37,000  Level FlightAware ADS-B
Fri 05:54:11 AM 51.9420 -3.9140 103° East 598 688 37,000  Level FlightAware ADS-B
Fri 05:54:48 AM 51.9190 -3.7590 103° East 596 686 37,000  Level FlightAware ADS-B
Fri 05:55:24 AM 51.8950 -3.6010 104° East 593 682 37,000  Level FlightAware ADS-B
Fri 05:55:56 AM 51.8740 -3.4660 104° East 590 679 37,000  Level FlightAware ADS-B
Fri 05:55:57 AM 51.8594 -3.4659 104° East 490 564 37,000  Level FlightAware UK
Fri 05:56:36 AM 51.8474 -3.2922 104° East 586 674 37,000  Level FlightAware ADS-B
Fri 05:57:08 AM 51.8258 -3.1532 104° East 584 672 37,000  Level FlightAware ADS-B
Fri 05:57:41 AM 51.8042 -3.0153 104° East 580 667 37,000  Level FlightAware ADS-B
Fri 05:58:12 AM 51.7839 -2.8871 104° East 578 665 37,000  Level FlightAware ADS-B
Fri 05:58:43 AM 51.7633 -2.7574 104° East 577 664 37,000  Level FlightAware ADS-B
Fri 05:59:14 AM 51.7429 -2.6291 104° East 576 663 37,000  Level FlightAware ADS-B
Fri 05:59:45 AM 51.7223 -2.5027 105° East 574 661 37,000  Level FlightAware ADS-B
Fri 06:00:15 AM 51.7021 -2.3785 105° East 572 658 37,000  Level FlightAware ADS-B
Fri 06:00:47 AM 51.6806 -2.2481 105° East 570 656 37,000  Level FlightAware ADS-B
Fri 06:01:17 AM 51.6596 -2.1218 105° East 569 655 37,000  Level FlightAware ADS-B
Fri 06:01:48 AM 51.6388 -1.9964 105° East 570 656 37,000  Level FlightAware ADS-B
Fri 06:02:20 AM 51.6167 -1.8655 105° East 569 655 37,000  Level FlightAware ADS-B
Fri 06:02:52 AM 51.5947 -1.7360 105° East 569 655 37,000  Level FlightAware ADS-B
Fri 06:03:23 AM 51.5734 -1.6114 105° East 568 654 37,000  Level FlightAware ADS-B
Fri 06:03:53 AM 51.5522 -1.4880 105° East 568 654 37,000  Level FlightAware ADS-B
Fri 06:04:24 AM 51.5305 -1.3640 106° East 567 652 37,000  Level FlightAware ADS-B
Fri 06:04:47 AM 51.5144 -1.2683 105° East 565 650 37,000  Level FlightAware ADS-B
Fri 06:05:18 AM 51.4976 -1.1411 102° East 561 646 37,000  Level FlightAware ADS-B
Fri 06:05:50 AM 51.4858 -1.0117 98° East 558 642 37,000  Level FlightAware ADS-B
Fri 06:06:21 AM 51.4747 -0.8849 98° East 556 640 37,000  Level FlightAware ADS-B
Fri 06:06:52 AM 51.4635 -0.7597 98° East 556 640 37,000  Level FlightAware ADS-B
Fri 06:07:23 AM 51.4520 -0.6306 98° East 556 640 37,000  Level FlightAware ADS-B
Fri 06:07:54 AM 51.4405 -0.5057 98° East 554 638 37,000  Level FlightAware ADS-B
Fri 06:08:26 AM 51.4284 -0.3760 98° East 552 635 37,000  Level FlightAware ADS-B
Fri 06:08:57 AM 51.4168 -0.2522 99° East 551 634 37,000  Level FlightAware ADS-B
Fri 06:09:32 AM 51.4033 -0.1125 99° East 549 632 37,000  Level FlightAware ADS-B
Fri 06:10:03 AM 51.3911 0.0111 99° East 550 633 37,000  Level FlightAware ADS-B
Fri 06:10:34 AM 51.3788 0.1360 99° East 550 633 37,000  Level FlightAware ADS-B
Fri 06:11:04 AM 51.3667 0.2590 99° East 550 633 37,000  Level FlightAware ADS-B
Fri 06:11:37 AM 51.3533 0.3910 99° East 549 632 37,000  Level FlightAware ADS-B
Fri 06:12:08 AM 51.3409 0.5135 99° East 548 631 37,000  Level FlightAware ADS-B
Fri 06:12:39 AM 51.3282 0.6374 99° East 547 629 37,000  Level FlightAware ADS-B
Fri 06:13:11 AM 51.3150 0.7633 99° East 548 631 37,000  Level FlightAware ADS-B
Fri 06:13:43 AM 51.3015 0.8910 100° East 548 631 37,000  Level FlightAware ADS-B
Fri 06:14:14 AM 51.2885 1.0143 100° East 548 631 37,000  Level FlightAware ADS-B
Fri 06:15:02 AM 51.2683 1.2038 100° East 547 629 37,000  Level FlightAware ADS-B
Fri 06:15:47 AM 51.2470 1.3850 101° East 548 631 37,000  Level FlightAware ADS-B
Fri 06:16:22 AM 51.2190 1.5190 108° East 550 633 37,000  Level FlightAware ADS-B
Fri 06:16:55 AM 51.1778 1.6254 108° East 498 573 37,000  Level FlightAware UK
Fri 06:16:59 AM 51.1820 1.6540 108° East 550 633 37,000  Level FlightAware ADS-B
Fri 06:17:34 AM 51.1450 1.7840 114° Southeast 550 633 37,000  Level FlightAware ADS-B
Fri 06:18:07 AM 51.1120 1.9010 114° Southeast 550 633 37,000  Level FlightAware ADS-B
Fri 06:18:43 AM 51.0720 2.0380 115° Southeast 550 633 37,000  Level FlightAware ADS-B
Fri 06:19:17 AM 51.0350 2.1650 115° Southeast 549 632 37,000  Level FlightAware ADS-B
Fri 06:19:19 AM 51.0259 2.1557 115° Southeast 498 573 37,000  Level FlightAware UK
Fri 06:19:54 AM 50.9960 2.2980 115° Southeast 549 632 37,000  Level FlightAware ADS-B
Fri 06:20:29 AM 50.9620 2.4130 115° Southeast 547 629 37,000  Level FlightAware ADS-B
Fri 06:20:59 AM 50.9270 2.5330 115° Southeast 546 628 37,000  Level FlightAware ADS-B
Fri 06:21:39 AM 50.8840 2.6760 115° Southeast 544 626 37,000  Level FlightAware ADS-B
Fri 06:22:09 AM 50.8530 2.7810 115° Southeast 543 625 37,000  Level FlightAware ADS-B
Fri 06:22:54 AM 50.8040 2.9440 115° Southeast 540 621 37,000  Level FlightAware ADS-B
Fri 06:23:32 AM 50.7630 3.0800 115° Southeast 538 619 37,000  Level FlightAware ADS-B
Fri 06:24:04 AM 50.7310 3.1880 115° Southeast 536 617 37,000  Level FlightAware ADS-B
Fri 06:24:38 AM 50.6920 3.3110 117° Southeast 535 616 37,000  Level FlightAware ADS-B
Fri 06:25:16 AM 50.6510 3.4430 116° Southeast 535 616 37,000  Level FlightAware ADS-B
Fri 06:25:49 AM 50.6140 3.5600 116° Southeast 533 613 37,000  Level FlightAware ADS-B
Fri 06:26:20 AM 50.5800 3.6710 116° Southeast 534 615 37,000  Level FlightAware ADS-B
Fri 06:26:55 AM 50.5335 3.7792 116° Southeast 494 568 37,000  Level FlightAware UK
Fri 06:27:00 AM 50.5370 3.8040 116° Southeast 533 613 37,000  Level FlightAware ADS-B
Fri 06:27:31 AM 50.5040 3.9090 116° Southeast 534 615 37,000  Level FlightAware ADS-B
Fri 06:28:08 AM 50.4620 4.0410 117° Southeast 533 613 37,000  Level FlightAware ADS-B
Fri 06:28:46 AM 50.4200 4.1740 116° Southeast 533 613 37,000  Level FlightAware ADS-B
Fri 06:29:18 AM 50.3860 4.2820 116° Southeast 532 612 37,000  Level FlightAware ADS-B
Fri 06:29:54 AM 50.3470 4.4030 116° Southeast 533 613 37,000  Level FlightAware ADS-B
Fri 06:29:56 AM 50.3343 4.4011 116° Southeast 1 1 37,000  Level FlightAware UK
Fri 06:30:29 AM 50.3090 4.5230 116° Southeast 533 613 37,000  Level FlightAware ADS-B
Fri 06:31:02 AM 50.2720 4.6390 116° Southeast 533 613 37,000  Level FlightAware ADS-B
Fri 06:31:39 AM 50.2300 4.7690 117° Southeast 531 611 37,000  Level FlightAware ADS-B
Fri 06:32:14 AM 50.1930 4.8840 117° Southeast 531 611 37,000  Level FlightAware ADS-B
Fri 06:32:43 AM 50.1590 4.9860 117° Southeast 530 610 37,000  Level FlightAware ADS-B
Fri 06:33:25 AM 50.1120 5.1320 117° Southeast 528 608 37,000  Level FlightAware ADS-B
Fri 06:33:57 AM 50.0760 5.2400 117° Southeast 527 606 37,000  Level FlightAware ADS-B
Fri 06:34:35 AM 50.0340 5.3660 117° Southeast 526 605 37,000  Level FlightAware ADS-B
Fri 06:35:11 AM 49.9950 5.4830 117° Southeast 525 604 37,000  Level FlightAware ADS-B
Fri 06:35:43 AM 49.9600 5.5880 117° Southeast 524 603 37,000  Level FlightAware ADS-B
Fri 06:36:16 AM 49.9210 5.7040 118° Southeast 523 602 37,000  Level FlightAware ADS-B
Fri 06:36:51 AM 49.8830 5.8170 118° Southeast 522 601 37,000  Level FlightAware ADS-B
Fri 06:37:31 AM 49.8400 5.9420 118° Southeast 521 600 37,000  Level FlightAware ADS-B
Fri 06:38:03 AM 49.8000 6.0600 118° Southeast 520 598 37,000  Level FlightAware ADS-B
Fri 06:38:41 AM 49.7610 6.1740 118° Southeast 518 596 37,000  Level FlightAware ADS-B
Fri 06:39:15 AM 49.7210 6.2920 118° Southeast 517 595 37,000  Level FlightAware ADS-B
Fri 06:39:50 AM 49.6810 6.4060 118° Southeast 515 593 37,000  Level FlightAware ADS-B
Fri 06:40:22 AM 49.6460 6.5060 118° Southeast 514 592 37,000  Level FlightAware ADS-B
Fri 06:40:58 AM 49.6050 6.6270 118° Southeast 513 590 37,000  Level FlightAware ADS-B
Fri 06:41:34 AM 49.5650 6.7400 119° Southeast 512 589 37,000  Level FlightAware ADS-B
Fri 06:42:11 AM 49.5250 6.8550 118° Southeast 511 588 37,000  Level FlightAware ADS-B
Fri 06:42:46 AM 49.4840 6.9720 118° Southeast 510 587 37,000  Level FlightAware ADS-B
Fri 06:43:18 AM 49.4480 7.0720 119° Southeast 510 587 37,000  Level FlightAware ADS-B
Fri 06:43:55 AM 49.4070 7.1880 118° Southeast 511 588 37,000  Level FlightAware ADS-B
Fri 06:44:30 AM 49.3660 7.3020 119° Southeast 511 588 37,000  Level FlightAware ADS-B
Fri 06:45:04 AM 49.3270 7.4100 119° Southeast 510 587 37,000  Level FlightAware ADS-B
Fri 06:45:38 AM 49.2880 7.5170 119° Southeast 510 587 37,000  Level FlightAware ADS-B
Fri 06:46:26 AM 49.2500 7.6220 119° Southeast 510 587 37,000  Level FlightAware ADS-B
Fri 06:47:06 AM 49.1870 7.7960 119° Southeast 508 585 37,000  Level FlightAware ADS-B
Fri 06:47:38 AM 49.1530 7.8900 119° Southeast 508 585 37,000  Level FlightAware ADS-B
Fri 06:48:14 AM 49.1100 8.0110 118° Southeast 509 586 37,000  Level FlightAware ADS-B
Fri 06:48:48 AM 49.0720 8.1160 119° Southeast 509 586 37,000  Level FlightAware ADS-B
Fri 06:49:26 AM 49.0280 8.2350 119° Southeast 508 585 37,000  Level FlightAware ADS-B
Fri 06:49:58 AM 48.9930 8.3330 119° Southeast 509 586 37,000  Level FlightAware ADS-B
Fri 06:50:31 AM 48.9540 8.4380 119° Southeast 508 585 37,000  Level FlightAware ADS-B
Fri 06:51:11 AM 48.9080 8.5610 120° Southeast 508 585 37,000  Level FlightAware ADS-B
Fri 06:51:41 AM 48.8700 8.6550 122° Southeast 507 583 37,000  Level FlightAware ADS-B
Fri 06:52:20 AM 48.8140 8.7580 130° Southeast 501 577 37,000  Level FlightAware ADS-B
Fri 06:52:59 AM 48.7480 8.8490 138° Southeast 497 572 37,000  Level FlightAware ADS-B
Fri 06:53:35 AM 48.6840 8.9340 139° Southeast 496 571 37,000  Level FlightAware ADS-B
Fri 06:54:11 AM 48.6240 9.0130 139° Southeast 496 571 37,000  Level FlightAware ADS-B
Fri 06:54:47 AM 48.5600 9.0950 140° Southeast 494 568 37,000  Level FlightAware ADS-B
Fri 06:55:14 AM 48.5120 9.1520 142° Southeast 493 567 37,000  Level FlightAware ADS-B
Fri 06:56:02 AM 48.4240 9.2530 143° Southeast 492 566 37,000  Level FlightAware ADS-B
Fri 06:56:34 AM 48.3670 9.3180 143° Southeast 491 565 37,000  Level FlightAware ADS-B
Fri 06:57:10 AM 48.3180 9.3720 144° Southeast 491 565 37,000  Level FlightAware ADS-B
Fri 06:57:45 AM 48.2550 9.4430 143° Southeast 491 565 37,000  Level FlightAware ADS-B
Fri 06:58:20 AM 48.1840 9.5020 151° Southeast 487 560 37,000  Level FlightAware ADS-B
Fri 06:58:55 AM 48.1190 9.5510 153° Southeast 487 560 37,000  Level FlightAware ADS-B
Fri 06:59:35 AM 48.0220 9.6220 154° Southeast 481 554 37,000  Level FlightAware ADS-B
Fri 07:00:05 AM 47.9570 9.6690 154° Southeast 476 548 37,000  Level FlightAware ADS-B
Fri 07:00:43 AM 47.8790 9.7240 155° Southeast 474 545 37,000  Level FlightAware ADS-B
Fri 07:01:19 AM 47.8080 9.7740 155° Southeast 473 544 37,000  Level FlightAware ADS-B
Fri 07:02:01 AM 47.7250 9.8320 155° Southeast 471 542 37,000  Level FlightAware ADS-B
Fri 07:02:33 AM 47.6640 9.8740 155° Southeast 463 533 37,000  Level FlightAware ADS-B
Fri 07:03:09 AM 47.5920 9.9230 155° Southeast 470 541 37,000  Level FlightAware ADS-B
Fri 07:03:41 AM 47.5290 9.9650 156° South 470 541 37,000  Level FlightAware ADS-B
Fri 07:04:29 AM 47.4320 10.0300 156° South 471 542 37,000  Level FlightAware ADS-B
Fri 07:05:00 AM 47.3710 10.0710 156° South 472 543 37,000  Level FlightAware ADS-B
Fri 07:05:31 AM 47.3100 10.1110 156° South 473 544 37,000  Level FlightAware ADS-B
Fri 07:06:12 AM 47.2270 10.1670 155° Southeast 478 550 37,000  Level FlightAware ADS-B
Fri 07:06:47 AM 47.1550 10.2150 156° South 482 555 37,000  Level FlightAware ADS-B
Fri 07:07:21 AM 47.0860 10.2610 156° South 483 556 37,000  Level FlightAware ADS-B
Fri 07:07:58 AM 47.0130 10.3090 156° South 484 557 37,000  Level FlightAware ADS-B
Fri 07:08:37 AM 46.9320 10.3630 156° South 486 559 37,000  Level FlightAware ADS-B
Fri 07:09:13 AM 46.8570 10.4120 156° South 488 562 37,000  Level FlightAware ADS-B
Fri 07:09:50 AM 46.7840 10.4620 155° Southeast 490 564 37,000  Level FlightAware ADS-B
Fri 07:10:25 AM 46.7200 10.5390 140° Southeast 496 571 37,000  Level FlightAware ADS-B
Fri 07:10:55 AM 46.6800 10.6170 127° Southeast 498 573 37,000  Level FlightAware ADS-B
Fri 07:11:36 AM 46.6250 10.7280 126° Southeast 499 574 37,000  Level FlightAware ADS-B
Fri 07:12:09 AM 46.5800 10.8180 126° Southeast 501 577 37,000  Level FlightAware ADS-B
Fri 07:12:44 AM 46.5300 10.9160 127° Southeast 502 578 37,000  Level FlightAware ADS-B
Fri 07:13:20 AM 46.4810 11.0120 127° Southeast 503 579 37,000  Level FlightAware ADS-B
Fri 07:13:53 AM 46.4350 11.1010 127° Southeast 503 579 37,000  Level FlightAware ADS-B
Fri 07:14:30 AM 46.3830 11.2030 126° Southeast 501 577 37,000  Level FlightAware ADS-B
Fri 07:15:02 AM 46.3400 11.2860 127° Southeast 499 574 37,000  Level FlightAware ADS-B
Fri 07:15:39 AM 46.2900 11.3830 127° Southeast 496 571 37,000  Level FlightAware ADS-B
Fri 07:16:10 AM 46.2460 11.4670 127° Southeast 495 570 37,000  Level FlightAware ADS-B
Fri 07:16:48 AM 46.1980 11.5610 126° Southeast 493 567 37,000  Level FlightAware ADS-B
Fri 07:17:24 AM 46.1450 11.6620 127° Southeast 493 567 37,000  Level FlightAware ADS-B
Fri 07:17:58 AM 46.0990 11.7490 127° Southeast 493 567 37,000  Level FlightAware ADS-B
Fri 07:18:30 AM 46.0550 11.8330 127° Southeast 494 568 37,000  Level FlightAware ADS-B
Fri 07:19:08 AM 46.0010 11.9360 127° Southeast 494 568 37,000  Level FlightAware ADS-B
Fri 07:19:44 AM 45.9530 12.0280 127° Southeast 494 568 37,000  Level FlightAware ADS-B
Fri 07:20:17 AM 45.9070 12.1130 128° Southeast 488 562 37,000  Level FlightAware ADS-B
Fri 07:20:52 AM 45.8590 12.2020 128° Southeast 489 563 37,000  Level FlightAware ADS-B
Fri 07:21:32 AM 45.8080 12.2980 127° Southeast 487 560 37,000 525 Level FlightAware ADS-B
Fri 07:22:12 AM 45.7480 12.4090 128° Southeast 484 557 37,700 825 Climbing FlightAware ADS-B
Fri 07:22:52 AM 45.6950 12.5080 127° Southeast 488 562 38,100 640 Climbing FlightAware ADS-B
Fri 07:23:27 AM 45.6430 12.6030 128° Southeast 497 572 38,500 560 Climbing FlightAware ADS-B
Fri 07:24:07 AM 45.5900 12.6990 128° Southeast 501 577 38,800 395 Climbing FlightAware ADS-B
Fri 07:24:43 AM 45.5370 12.7960 128° Southeast 503 579 39,000 156 Climbing FlightAware ADS-B
Fri 07:25:24 AM 45.4790 12.9040 127° Southeast 501 577 39,000  Level FlightAware ADS-B
Fri 07:26:03 AM 45.4230 13.0060 128° Southeast 498 573 39,000  Level FlightAware ADS-B
Fri 07:26:38 AM 45.3740 13.1050 125° Southeast 497 572 39,000  Level FlightAware ADS-B
Fri 07:27:08 AM 45.3390 13.1760 125° Southeast 496 571 39,000  Level FlightAware ADS-B
Fri 07:27:46 AM 45.2850 13.2860 125° Southeast 493 567 39,000  Level FlightAware ADS-B
Fri 07:28:17 AM 45.2440 13.3680 125° Southeast 491 565 39,000  Level FlightAware ADS-B
Fri 07:28:58 AM 45.1930 13.4680 126° Southeast 496 571 39,000  Level FlightAware ADS-B
Fri 07:29:28 AM 45.1510 13.5520 125° Southeast 496 571 39,000  Level FlightAware ADS-B
Fri 07:30:08 AM 45.0980 13.6570 126° Southeast 498 573 39,000  Level FlightAware ADS-B
Fri 07:30:43 AM 45.0500 13.7490 126° Southeast 499 574 39,000  Level FlightAware ADS-B
Fri 07:31:13 AM 45.0110 13.8250 126° Southeast 499 574 39,000  Level FlightAware ADS-B
Fri 07:32:01 AM 44.9480 13.9470 126° Southeast 499 574 39,000  Level FlightAware ADS-B
Fri 07:32:32 AM 44.9030 14.0340 126° Southeast 499 574 39,000  Level FlightAware ADS-B
Fri 07:33:08 AM 44.8530 14.1310 126° Southeast 497 572 39,000  Level FlightAware ADS-B
Fri 07:33:47 AM 44.8010 14.2300 126° Southeast 498 573 39,000  Level FlightAware ADS-B
Fri 07:34:23 AM 44.7470 14.3320 127° Southeast 497 572 39,000  Level FlightAware ADS-B
Fri 07:35:07 AM 44.6890 14.4440 126° Southeast 494 568 39,000  Level FlightAware ADS-B
Fri 07:35:47 AM 44.6350 14.5490 126° Southeast 484 557 39,000  Level FlightAware ADS-B
Fri 07:36:22 AM 44.5890 14.6390 126° Southeast 480 552 39,000  Level FlightAware ADS-B
Fri 07:36:53 AM 44.5520 14.7100 126° Southeast 477 549 39,000  Level FlightAware ADS-B
Fri 07:37:35 AM 44.4930 14.8210 127° Southeast 473 544 39,000  Level FlightAware ADS-B
Fri 07:38:06 AM 44.4580 14.8880 126° Southeast 473 544 39,000  Level FlightAware ADS-B
Fri 07:38:45 AM 44.4170 14.9710 125° Southeast 473 544 39,000  Level FlightAware ADS-B
Fri 07:39:20 AM 44.3620 15.0710 128° Southeast 471 542 39,000  Level FlightAware ADS-B
Fri 07:39:50 AM 44.3180 15.1520 127° Southeast 473 544 39,000  Level FlightAware ADS-B
Fri 07:40:25 AM 44.2740 15.2360 126° Southeast 474 545 39,000  Level FlightAware ADS-B
Fri 07:41:10 AM 44.2100 15.3550 127° Southeast 481 554 39,000  Level FlightAware ADS-B
Fri 07:41:45 AM 44.1640 15.4410 127° Southeast 483 556 39,000  Level FlightAware ADS-B
Fri 07:42:20 AM 44.1170 15.5280 127° Southeast 483 556 39,000  Level FlightAware ADS-B
Fri 07:42:55 AM 44.0700 15.6150 127° Southeast 483 556 39,000  Level FlightAware ADS-B
Fri 07:43:30 AM 44.0260 15.6970 127° Southeast 483 556 39,000  Level FlightAware ADS-B
Fri 07:44:00 AM 43.9830 15.7750 127° Southeast 484 557 39,000  Level FlightAware ADS-B
Fri 07:44:40 AM 43.9300 15.8740 127° Southeast 483 556 39,000  Level FlightAware ADS-B
Fri 07:45:15 AM 43.8830 15.9600 127° Southeast 484 557 39,000  Level FlightAware ADS-B
Fri 07:45:50 AM 43.8360 16.0470 127° Southeast 484 557 39,000  Level FlightAware ADS-B
Fri 07:46:25 AM 43.7860 16.1360 128° Southeast 484 557 39,000  Level FlightAware ADS-B
Fri 07:47:00 AM 43.7390 16.2220 127° Southeast 480 552 39,000  Level FlightAware ADS-B
Fri 07:47:35 AM 43.6930 16.3040 128° Southeast 480 552 39,000  Level FlightAware ADS-B
Fri 07:48:11 AM 43.6420 16.3940 128° Southeast 480 552 39,000  Level FlightAware ADS-B
Fri 07:48:45 AM 43.5960 16.4770 127° Southeast 480 552 39,000  Level FlightAware ADS-B
Fri 07:49:20 AM 43.5480 16.5630 128° Southeast 481 554 39,000  Level FlightAware ADS-B
Fri 07:49:55 AM 43.5000 16.6480 128° Southeast 482 555 39,000  Level FlightAware ADS-B
Fri 07:50:30 AM 43.4500 16.7380 127° Southeast 482 555 39,000  Level FlightAware ADS-B
Fri 07:51:05 AM 43.4030 16.8210 128° Southeast 484 557 39,000  Level FlightAware ADS-B
Fri 07:51:40 AM 43.3540 16.9090 127° Southeast 484 557 39,000  Level FlightAware ADS-B
Fri 07:52:15 AM 43.3050 16.9950 128° Southeast 485 558 39,000  Level FlightAware ADS-B
Fri 07:52:50 AM 43.2570 17.0810 127° Southeast 487 560 39,000  Level FlightAware ADS-B
Fri 07:53:25 AM 43.2060 17.1700 128° Southeast 494 568 39,000  Level FlightAware ADS-B
Fri 07:54:00 AM 43.1600 17.2520 128° Southeast 495 570 39,000  Level FlightAware ADS-B
Fri 07:54:35 AM 43.1090 17.3410 128° Southeast 496 571 39,000  Level FlightAware ADS-B
Fri 07:55:10 AM 43.0620 17.4230 128° Southeast 497 572 39,000  Level FlightAware ADS-B
Fri 07:55:47 AM 43.0120 17.5100 128° Southeast 499 574 39,000  Level FlightAware ADS-B
Fri 07:56:20 AM 42.9600 17.6000 128° Southeast 498 573 39,000  Level FlightAware ADS-B
Fri 07:57:00 AM 42.9080 17.6930 127° Southeast 498 573 39,000  Level FlightAware ADS-B
Fri 07:57:40 AM 42.8480 17.7960 128° Southeast 497 572 39,000  Level FlightAware ADS-B
Fri 07:58:09 AM 42.8090 17.8640 128° Southeast 497 572 39,000  Level FlightAware ADS-B
Fri 07:58:47 AM 42.7590 17.9500 128° Southeast 497 572 39,000  Level FlightAware ADS-B
Fri 07:59:24 AM 42.7000 18.0510 128° Southeast 495 570 39,000  Level FlightAware ADS-B
Fri 08:00:01 AM 42.6530 18.1330 128° Southeast 496 571 39,000  Level FlightAware ADS-B
Fri 08:00:31 AM 42.6090 18.2070 129° Southeast 496 571 39,000  Level FlightAware ADS-B
Fri 08:01:06 AM 42.5500 18.3010 130° Southeast 491 565 39,000  Level FlightAware ADS-B
Fri 08:01:45 AM 42.4860 18.3860 136° Southeast 488 562 39,000  Level FlightAware ADS-B
Fri 08:02:17 AM 42.4340 18.4550 136° Southeast 489 563 39,000  Level FlightAware ADS-B
Fri 08:02:53 AM 42.3760 18.5340 135° Southeast 489 563 39,000  Level FlightAware ADS-B
Fri 08:03:29 AM 42.3200 18.6100 135° Southeast 490 564 39,000  Level FlightAware ADS-B
Fri 08:04:05 AM 42.2610 18.6900 135° Southeast 490 564 39,000  Level FlightAware ADS-B
Fri 08:04:39 AM 42.2080 18.7610 135° Southeast 490 564 39,000  Level FlightAware ADS-B
Fri 08:05:15 AM 42.1500 18.8400 135° Southeast 490 564 39,000  Level FlightAware ADS-B
Fri 08:05:47 AM 42.0970 18.9110 135° Southeast 490 564 39,000  Level FlightAware ADS-B
Fri 08:06:23 AM 42.0410 18.9870 135° Southeast 491 565 39,000  Level FlightAware ADS-B
Fri 08:06:59 AM 41.9820 19.0650 135° Southeast 492 566 39,000  Level FlightAware ADS-B
Fri 08:07:33 AM 41.9280 19.1380 135° Southeast 492 566 39,000  Level FlightAware ADS-B
Fri 08:08:09 AM 41.8710 19.2130 136° Southeast 491 565 39,000  Level FlightAware ADS-B
Fri 08:08:43 AM 41.8140 19.2890 135° Southeast 490 564 39,000  Level FlightAware ADS-B
Fri 08:09:19 AM 41.7530 19.3630 138° Southeast 487 560 39,000  Level FlightAware ADS-B
Fri 08:09:53 AM 41.6960 19.4290 139° Southeast 485 558 39,000  Level FlightAware ADS-B
Fri 08:10:28 AM 41.6430 19.4970 136° Southeast 490 564 39,000  Level FlightAware ADS-B
Fri 08:11:03 AM 41.5830 19.5780 135° Southeast 490 564 39,000  Level FlightAware ADS-B
Fri 08:11:37 AM 41.5460 19.6270 135° Southeast 490 564 39,000  Level FlightAware ADS-B
Fri 08:12:15 AM 41.4680 19.7310 135° Southeast 490 564 39,000  Level FlightAware ADS-B
Fri 08:12:50 AM 41.4110 19.8040 136° Southeast 490 564 39,000  Level FlightAware ADS-B
Fri 08:13:21 AM 41.3620 19.8670 136° Southeast 491 565 39,000  Level FlightAware ADS-B
Fri 08:13:58 AM 41.3000 19.9470 136° Southeast 493 567 39,000  Level FlightAware ADS-B
Fri 08:14:30 AM 41.2470 20.0140 136° Southeast 495 570 39,000  Level FlightAware ADS-B
Fri 08:15:10 AM 41.1840 20.0960 136° Southeast 496 571 39,000  Level FlightAware ADS-B
Fri 08:15:44 AM 41.1240 20.1730 136° Southeast 497 572 39,000  Level FlightAware ADS-B
Fri 08:16:18 AM 41.0730 20.2390 136° Southeast 497 572 39,000  Level FlightAware ADS-B
Fri 08:16:54 AM 41.0110 20.3180 136° Southeast 498 573 39,000  Level FlightAware ADS-B
Fri 08:17:28 AM 40.9580 20.3860 136° Southeast 498 573 39,000  Level FlightAware ADS-B
Fri 08:18:04 AM 40.8950 20.4670 136° Southeast 500 575 39,000  Level FlightAware ADS-B
Fri 08:18:36 AM 40.8400 20.5360 136° Southeast 501 577 39,000  Level FlightAware ADS-B
Fri 08:19:12 AM 40.7790 20.6140 136° Southeast 501 577 39,000  Level FlightAware ADS-B
Fri 08:19:48 AM 40.7180 20.6900 137° Southeast 503 579 39,000  Level FlightAware ADS-B
Fri 08:20:24 AM 40.6610 20.7620 136° Southeast 504 580 39,000  Level FlightAware ADS-B
Fri 08:20:56 AM 40.6040 20.8340 136° Southeast 505 581 39,000  Level FlightAware ADS-B
Fri 08:21:30 AM 40.5460 20.9050 137° Southeast 504 580 39,000  Level FlightAware ADS-B
Fri 08:22:10 AM 40.4790 20.9900 136° Southeast 504 580 39,000  Level FlightAware ADS-B
Fri 08:22:42 AM 40.4230 21.0540 139° Southeast 503 579 39,000  Level FlightAware ADS-B
Fri 08:23:18 AM 40.3590 21.1270 139° Southeast 503 579 39,000  Level FlightAware ADS-B
Fri 08:23:54 AM 40.2960 21.1990 139° Southeast 503 579 39,000  Level FlightAware ADS-B
Fri 08:24:26 AM 40.2400 21.2640 138° Southeast 502 578 39,000  Level FlightAware ADS-B
Fri 08:25:04 AM 40.1730 21.3400 139° Southeast 503 579 39,000  Level FlightAware ADS-B
Fri 08:25:40 AM 40.1110 21.4120 138° Southeast 503 579 39,000  Level FlightAware ADS-B
Fri 08:26:12 AM 40.0550 21.4760 139° Southeast 503 579 39,000  Level FlightAware ADS-B
Fri 08:26:50 AM 39.9880 21.5520 139° Southeast 503 579 39,000  Level FlightAware ADS-B
Fri 08:27:23 AM 39.9310 21.6160 139° Southeast 503 579 39,000  Level FlightAware ADS-B
Fri 08:27:58 AM 39.8680 21.6880 139° Southeast 504 580 39,000  Level FlightAware ADS-B
Fri 08:28:32 AM 39.8080 21.7550 139° Southeast 505 581 39,000  Level FlightAware ADS-B
Fri 08:29:10 AM 39.7430 21.8290 139° Southeast 505 581 39,000  Level FlightAware ADS-B
Fri 08:29:44 AM 39.6810 21.8990 139° Southeast 506 582 39,000  Level FlightAware ADS-B
Fri 08:30:20 AM 39.6190 21.9680 139° Southeast 506 582 39,000  Level FlightAware ADS-B
Fri 08:30:55 AM 39.5550 22.0400 139° Southeast 506 582 39,000  Level FlightAware ADS-B
Fri 08:31:27 AM 39.4990 22.1020 139° Southeast 506 582 39,000  Level FlightAware ADS-B
Fri 08:32:03 AM 39.4350 22.1740 139° Southeast 509 586 39,000  Level FlightAware ADS-B
Fri 08:32:36 AM 39.3820 22.2460 134° Southeast 512 589 39,000  Level FlightAware ADS-B
Fri 08:33:16 AM 39.3190 22.3380 131° Southeast 514 592 39,000  Level FlightAware ADS-B
Fri 08:33:47 AM 39.2700 22.4120 131° Southeast 514 592 39,000  Level FlightAware ADS-B
Fri 08:34:25 AM 39.2110 22.5010 131° Southeast 513 590 39,000  Level FlightAware ADS-B
Fri 08:34:57 AM 39.1620 22.5760 130° Southeast 513 590 39,000  Level FlightAware ADS-B
Fri 08:35:33 AM 39.1060 22.6600 131° Southeast 513 590 39,000  Level FlightAware ADS-B
Fri 08:36:07 AM 39.0550 22.7380 130° Southeast 512 589 39,000  Level FlightAware ADS-B
Fri 08:36:41 AM 39.0040 22.8140 131° Southeast 512 589 39,000  Level FlightAware ADS-B
Fri 08:37:28 AM 38.9340 22.9180 131° Southeast 512 589 39,000  Level FlightAware ADS-B
Fri 08:38:07 AM 38.8700 23.0140 131° Southeast 513 590 39,000  Level FlightAware ADS-B
Fri 08:38:43 AM 38.8160 23.0940 131° Southeast 513 590 39,000  Level FlightAware ADS-B
Fri 08:39:20 AM 38.7560 23.1820 131° Southeast 514 592 39,000  Level FlightAware ADS-B
Fri 08:39:51 AM 38.7070 23.2550 131° Southeast 513 590 39,000  Level FlightAware ADS-B
Fri 08:40:27 AM 38.6520 23.3360 131° Southeast 513 590 39,000  Level FlightAware ADS-B
Fri 08:41:03 AM 38.5960 23.4170 131° Southeast 513 590 39,000  Level FlightAware ADS-B
Fri 08:41:38 AM 38.5440 23.4930 131° Southeast 513 590 39,000  Level FlightAware ADS-B
Fri 08:42:11 AM 38.4920 23.5690 131° Southeast 514 592 39,000  Level FlightAware ADS-B
Fri 08:42:47 AM 38.4360 23.6510 131° Southeast 512 589 39,000  Level FlightAware ADS-B
Fri 08:43:23 AM 38.3850 23.7260 131° Southeast 511 588 39,000  Level FlightAware ADS-B
Fri 08:43:57 AM 38.3310 23.8040 131° Southeast 510 587 39,000  Level FlightAware ADS-B
Fri 08:44:33 AM 38.2720 23.8900 131° Southeast 510 587 39,000  Level FlightAware ADS-B
Fri 08:45:05 AM 38.2220 23.9620 131° Southeast 509 586 39,000  Level FlightAware ADS-B
Fri 08:45:48 AM 38.1560 24.0580 131° Southeast 508 585 39,000  Level FlightAware ADS-B
Fri 08:46:25 AM 38.0940 24.1470 131° Southeast 508 585 39,000  Level FlightAware ADS-B
Fri 08:47:10 AM 38.0240 24.2480 131° Southeast 508 585 39,000  Level FlightAware ADS-B
Fri 08:47:50 AM 37.9650 24.3320 132° Southeast 509 586 39,000  Level FlightAware ADS-B
Fri 08:48:18 AM 37.9170 24.4010 131° Southeast 509 586 39,000  Level FlightAware ADS-B
Fri 08:48:58 AM 37.8540 24.4900 132° Southeast 510 587 39,000  Level FlightAware ADS-B
Fri 08:49:34 AM 37.8020 24.5750 128° Southeast 512 589 39,000  Level FlightAware ADS-B
Fri 08:50:10 AM 37.7520 24.6640 125° Southeast 514 592 39,000  Level FlightAware ADS-B
Fri 08:50:42 AM 37.7090 24.7410 125° Southeast 520 598 39,000  Level FlightAware ADS-B
Fri 08:51:18 AM 37.6590 24.8330 124° Southeast 523 602 39,000  Level FlightAware ADS-B
Fri 08:51:56 AM 37.6070 24.9280 125° Southeast 525 604 39,000  Level FlightAware ADS-B
Fri 08:52:28 AM 37.5640 25.0050 125° Southeast 527 606 39,000  Level FlightAware ADS-B
Fri 08:53:02 AM 37.5150 25.0930 125° Southeast 527 606 39,000  Level FlightAware ADS-B
Fri 08:53:38 AM 37.4650 25.1840 125° Southeast 527 606 39,000  Level FlightAware ADS-B
Fri 08:54:14 AM 37.4140 25.2750 125° Southeast 526 605 39,000  Level FlightAware ADS-B
Fri 08:54:46 AM 37.3700 25.3530 125° Southeast 527 606 39,000  Level FlightAware ADS-B
Fri 08:55:22 AM 37.3180 25.4450 125° Southeast 527 606 39,000  Level FlightAware ADS-B
Fri 08:55:58 AM 37.2680 25.5340 125° Southeast 529 609 39,000  Level FlightAware ADS-B
Fri 08:56:34 AM 37.2170 25.6260 125° Southeast 528 608 39,000  Level FlightAware ADS-B
Fri 08:57:02 AM 37.1780 25.6950 125° Southeast 528 608 39,000  Level FlightAware ADS-B
Fri 08:57:36 AM 37.1300 25.7810 125° Southeast 528 608 39,000  Level FlightAware ADS-B
Fri 08:58:12 AM 37.0790 25.8710 125° Southeast 527 606 39,000  Level FlightAware ADS-B
Fri 08:58:44 AM 37.0330 25.9510 126° Southeast 527 606 39,000  Level FlightAware ADS-B
Fri 08:59:20 AM 36.9830 26.0390 125° Southeast 527 606 39,000  Level FlightAware ADS-B
Fri 08:59:56 AM 36.9320 26.1280 126° Southeast 527 606 39,000  Level FlightAware ADS-B
Fri 09:00:32 AM 36.8800 26.2170 126° Southeast 526 605 39,000  Level FlightAware ADS-B
Fri 09:01:08 AM 36.8300 26.3050 125° Southeast 528 608 39,000  Level FlightAware ADS-B
Fri 09:01:44 AM 36.7770 26.3960 126° Southeast 527 606 39,000  Level FlightAware ADS-B
Fri 09:02:16 AM 36.7320 26.4740 126° Southeast 528 608 39,000  Level FlightAware ADS-B
Fri 09:02:52 AM 36.6810 26.5630 126° Southeast 529 609 39,000  Level FlightAware ADS-B
Fri 09:03:28 AM 36.6290 26.6520 126° Southeast 529 609 39,000  Level FlightAware ADS-B
Fri 09:03:56 AM 36.5890 26.7200 126° Southeast 528 608 39,000  Level FlightAware ADS-B
Fri 09:04:28 AM 36.5430 26.8000 126° Southeast 528 608 39,000  Level FlightAware ADS-B
Fri 09:05:06 AM 36.4890 26.8930 126° Southeast 528 608 39,000  Level FlightAware ADS-B
Fri 09:05:39 AM 36.4420 26.9730 126° Southeast 528 608 39,000  Level FlightAware ADS-B
Fri 09:06:14 AM 36.3920 27.0590 126° Southeast 528 608 39,000  Level FlightAware ADS-B
Fri 09:06:56 AM 36.3420 27.1480 125° Southeast 528 608 39,000  Level FlightAware ADS-B
Fri 09:07:32 AM 36.2990 27.2240 125° Southeast 528 608 39,000  Level FlightAware ADS-B
Fri 09:08:02 AM 36.2360 27.3250 128° Southeast 527 606 39,000  Level FlightAware ADS-B
Fri 09:08:39 AM 36.1930 27.4010 125° Southeast 527 606 39,000  Level FlightAware ADS-B
Fri 09:09:16 AM 36.1490 27.4790 125° Southeast 527 606 39,000  Level FlightAware ADS-B
Fri 09:09:52 AM 36.1060 27.5540 125° Southeast 527 606 39,000  Level FlightAware ADS-B
Fri 09:10:29 AM 36.0620 27.6320 125° Southeast 527 606 39,000  Level FlightAware ADS-B
Fri 09:11:05 AM 36.0190 27.7070 125° Southeast 527 606 39,000  Level FlightAware ADS-B
Fri 09:11:45 AM 35.9180 27.8590 129° Southeast 39,000  Level FlightAware ADS-B
Fri 09:13:29 AM 35.7640 28.1160 126° Southeast 528 608 39,000  Level FlightAware ADS-B
Fri 09:14:05 AM 35.7090 28.2060 127° Southeast 528 608 39,000  Level FlightAware ADS-B
Fri 09:14:39 AM 35.6600 28.2880 126° Southeast 528 608 39,000  Level FlightAware ADS-B
Fri 09:15:15 AM 35.6070 28.3760 127° Southeast 528 608 39,000  Level FlightAware ADS-B
Fri 09:15:51 AM 35.5550 28.4600 127° Southeast 527 606 39,000  Level FlightAware ADS-B
Fri 09:16:25 AM 35.5050 28.5420 127° Southeast 526 605 39,000  Level FlightAware ADS-B
Fri 09:16:57 AM 35.4580 28.6190 127° Southeast 527 606 39,000  Level FlightAware ADS-B
Fri 09:17:35 AM 35.4030 28.7100 127° Southeast 526 605 39,000  Level FlightAware ADS-B
Fri 09:18:09 AM 35.3530 28.7910 127° Southeast 526 605 39,000  Level FlightAware ADS-B
Fri 09:18:45 AM 35.3030 28.8730 127° Southeast 526 605 39,000  Level FlightAware ADS-B
Fri 09:19:20 AM 35.2530 28.9540 127° Southeast 520 598 39,000  Level FlightAware ADS-B
Fri 09:20:07 AM 35.1810 29.0700 127° Southeast 525 604 39,000  Level FlightAware ADS-B
Fri 09:20:49 AM 35.1290 29.1530 127° Southeast 525 604 39,000  Level FlightAware ADS-B
Fri 09:21:22 AM 35.0730 29.2430 127° Southeast 728 838 39,000  Level FlightAware ADS-B
Fri 09:22:18 AM 34.9900 29.3750 127° Southeast 521 600 39,000  Level FlightAware ADS-B
Fri 09:22:54 AM 34.9450 29.4500 126° Southeast 521 600 39,000  Level FlightAware ADS-B
Fri 09:23:33 AM 34.8790 29.5530 128° Southeast 525 604 39,000  Level FlightAware ADS-B
Fri 09:24:03 AM 34.8380 29.6180 128° Southeast 520 598 39,000  Level FlightAware ADS-B
Fri 09:24:39 AM 34.7820 29.7070 127° Southeast 519 597 39,000  Level FlightAware ADS-B
Fri 09:25:14 AM 34.7330 29.7930 125° Southeast 522 601 39,000  Level FlightAware ADS-B
Fri 09:25:49 AM 34.6890 29.8770 122° Southeast 523 602 39,000  Level FlightAware ADS-B
Fri 09:26:48 AM 34.6160 30.0270 121° Southeast 511 588 39,000  Level FlightAware ADS-B
Fri 09:27:29 AM 34.5670 30.1280 120° Southeast 510 587 39,000  Level FlightAware ADS-B
Fri 09:27:59 AM 34.5350 30.1940 120° Southeast 510 587 39,000  Level FlightAware ADS-B
Fri 09:28:38 AM 34.4850 30.2970 120° Southeast 509 586 39,000  Level FlightAware ADS-B
Fri 09:29:15 AM 34.4410 30.3870 121° Southeast 509 586 39,000  Level FlightAware ADS-B
Fri 09:29:50 AM 34.3970 30.4750 121° Southeast 508 585 39,000  Level FlightAware ADS-B
Fri 09:30:25 AM 34.3560 30.5600 120° Southeast 509 586 39,000  Level FlightAware ADS-B
Fri 09:31:06 AM 34.3060 30.6600 121° Southeast 508 585 39,000  Level FlightAware ADS-B
Fri 09:31:41 AM 34.2630 30.7470 121° Southeast 508 585 39,000  Level FlightAware ADS-B
Fri 09:32:22 AM 34.2130 30.8480 121° Southeast 508 585 39,000  Level FlightAware ADS-B
Fri 09:32:57 AM 34.1710 30.9320 121° Southeast 509 586 39,000  Level FlightAware ADS-B
Fri 09:33:32 AM 34.1290 31.0190 120° Southeast 509 586 39,000  Level FlightAware ADS-B
Fri 09:34:08 AM 34.0870 31.1020 121° Southeast 509 586 39,000  Level FlightAware ADS-B
Fri 09:34:38 AM 34.0480 31.1810 121° Southeast 510 587 39,000  Level FlightAware ADS-B
Fri 09:35:19 AM 34.0000 31.2780 121° Southeast 510 587 39,000  Level FlightAware ADS-B
Fri 09:35:49 AM 33.9620 31.3530 121° Southeast 506 582 39,000  Level FlightAware ADS-B
Fri 09:36:24 AM 33.9190 31.4400 121° Southeast 506 582 39,000  Level FlightAware ADS-B
Fri 09:37:04 AM 33.8710 31.5360 121° Southeast 506 582 39,000  Level FlightAware ADS-B
Fri 09:37:34 AM 33.8340 31.6100 121° Southeast 506 582 39,000  Level FlightAware ADS-B
Fri 09:38:05 AM 33.7970 31.6830 121° Southeast 506 582 39,000  Level FlightAware ADS-B
Fri 09:38:40 AM 33.7530 31.7700 121° Southeast 505 581 39,000  Level FlightAware ADS-B
Fri 09:39:16 AM 33.7090 31.8570 121° Southeast 505 581 39,000  Level FlightAware ADS-B
Fri 09:39:51 AM 33.6660 31.9420 121° Southeast 505 581 39,000  Level FlightAware ADS-B
Fri 09:40:27 AM 33.6230 32.0280 121° Southeast 505 581 39,000  Level FlightAware ADS-B
Fri 09:41:02 AM 33.5810 32.1100 122° Southeast 505 581 39,000  Level FlightAware ADS-B
Fri 09:41:40 AM 33.5330 32.2030 122° Southeast 504 580 39,000  Level FlightAware ADS-B
Fri 09:42:10 AM 33.4980 32.2700 122° Southeast 505 581 39,000  Level FlightAware ADS-B
Fri 09:42:46 AM 33.4520 32.3600 121° Southeast 497 572 39,000  Level FlightAware ADS-B
Fri 09:43:21 AM 33.4090 32.4430 122° Southeast 491 565 39,000  Level FlightAware ADS-B
Fri 09:43:57 AM 33.3670 32.5240 122° Southeast 489 563 39,000  Level FlightAware ADS-B
Fri 09:44:33 AM 33.3240 32.6080 121° Southeast 489 563 39,000 -706 Level FlightAware ADS-B
Fri 09:45:05 AM 33.2880 32.6780 122° Southeast 493 567 38,200 -2,743 Descending FlightAware ADS-B
Fri 09:45:43 AM 33.2410 32.7680 122° Southeast 510 587 35,800 -3,878 Descending FlightAware ADS-B
Fri 09:46:27 AM 33.1890 32.8680 122° Southeast 527 606 32,900 -3,247 Descending FlightAware ADS-B
Fri 09:47:08 AM 33.1360 32.9690 122° Southeast 521 600 31,200 -2,195 Descending FlightAware ADS-B
Fri 09:47:49 AM 33.0780 33.0790 122° Southeast 510 587 29,900 -1,800 Descending FlightAware ADS-B
Fri 09:48:18 AM 33.0530 33.1290 121° Southeast 505 581 29,100 -2,364 Descending FlightAware ADS-B
Fri 09:48:55 AM 32.9980 33.2330 122° Southeast 490 564 27,300 -2,640 Descending FlightAware ADS-B
Fri 09:49:33 AM 32.9520 33.3200 122° Southeast 476 548 25,800 -2,432 Descending FlightAware ADS-B
Fri 09:50:09 AM 32.9100 33.3990 122° Southeast 464 534 24,300 -2,229 Descending FlightAware ADS-B
Fri 09:50:43 AM 32.8720 33.4700 122° Southeast 459 528 23,200 -1,099 Descending FlightAware ADS-B
Fri 09:51:20 AM 32.8300 33.5500 122° Southeast 448 516 23,000 -1,099 Descending FlightAware ADS-B
Fri 09:51:54 AM 32.7930 33.6190 123° Southeast 444 511 21,900 -2,229 Descending FlightAware ADS-B
Fri 09:52:30 AM 32.7540 33.6930 122° Southeast 438 504 20,400 -2,435 Descending FlightAware ADS-B
Fri 09:53:03 AM 32.7180 33.7620 122° Southeast 430 495 19,100 -2,364 Descending FlightAware ADS-B
Fri 09:53:36 AM 32.6830 33.8260 123° Southeast 425 489 17,800 -2,197 Descending FlightAware ADS-B
Fri 09:54:14 AM 32.6440 33.9000 122° Southeast 415 478 16,500 -2,137 Descending FlightAware ADS-B
Fri 09:54:49 AM 32.6200 33.9750 111° Southeast 410 472 15,200 -2,382 Descending FlightAware ADS-B
Fri 09:55:22 AM 32.6160 34.0480 94° East 406 467 13,800 -2,261 Descending FlightAware ADS-B
Fri 09:55:58 AM 32.6120 34.1270 93° East 393 452 12,600 -1,726 Descending FlightAware ADS-B
Fri 09:56:35 AM 32.6090 34.2050 93° East 374 430 11,700 -1,235 Descending FlightAware ADS-B
Fri 09:57:06 AM 32.6040 34.2670 95° East 352 405 11,200 -894 Descending FlightAware ADS-B
Fri 09:57:22 AM 32.5950 34.2950 111° Southeast 338 389 11,000 -529 Descending FlightAware ADS-B
Fri 09:57:40 AM 32.5780 34.3180 131° Southeast 324 373 10,900 -486 Descending FlightAware ADS-B
Fri 09:57:59 AM 32.5520 34.3360 150° Southeast 308 354 10,700 -1,019 Descending FlightAware ADS-B
Fri 09:58:33 AM 32.5100 34.3550 159° South 300 345 10,000 -1,111 Descending FlightAware ADS-B
Fri 09:58:53 AM 32.4860 34.3640 162° South 297 342 9,700 -1,200 Descending FlightAware ADS-B
Fri 09:59:18 AM 32.4520 34.3780 161° South 291 335 9,100 -1,309 Descending FlightAware ADS-B
Fri 09:59:48 AM 32.4170 34.3920 161° South 289 333 8,500 -1,300 Descending FlightAware ADS-B
Fri 10:00:18 AM 32.3770 34.4080 161° South 284 327 7,800 -1,320 Descending FlightAware ADS-B
Fri 10:00:38 AM 32.3530 34.4180 161° South 284 327 7,400 -1,200 Descending FlightAware ADS-B
Fri 10:01:08 AM 32.3200 34.4330 159° South 284 327 6,800 -1,320 Descending FlightAware ADS-B
Fri 10:01:28 AM 32.2920 34.4450 160° South 278 320 6,300 -737 Descending FlightAware ADS-B
Fri 10:02:05 AM 32.2510 34.4640 159° South 278 320 6,100 -1,500 Descending FlightAware ADS-B
Fri 10:02:08 AM 32.2430 34.4750 131° Southeast 279 321 5,300 -3,000 Descending FlightAware ADS-B
Fri 10:02:23 AM 32.2340 34.4900 125° Southeast 280 322 5,200 -300 Descending FlightAware ADS-B
Fri 10:02:28 AM 32.2280 34.5000 125° Southeast 283 326 5,200  Level FlightAware ADS-B
Fri 10:02:49 AM 32.2150 34.5260 121° Southeast 283 326 5,200  Level FlightAware ADS-B
Fri 10:03:08 AM 32.2020 34.5520 121° Southeast 283 326 5,200  Level FlightAware ADS-B
Fri 10:03:28 AM 32.1890 34.5780 121° Southeast 283 326 5,200  Level FlightAware ADS-B
Fri 10:03:44 AM 32.1810 34.5930 122° Southeast 272 313 5,200  Level FlightAware ADS-B
Fri 10:04:03 AM 32.1660 34.6210 122° Southeast 246 283 5,200  Level FlightAware ADS-B
Fri 10:04:29 AM 32.1510 34.6470 124° Southeast 239 275 5,200  Level FlightAware ADS-B
Fri 10:04:53 AM 32.1350 34.6760 123° Southeast 239 275 5,200  Level FlightAware ADS-B
Fri 10:05:09 AM 32.1270 34.6900 124° Southeast 239 275 5,200  Level FlightAware ADS-B
Fri 10:05:29 AM 32.1150 34.7130 122° Southeast 240 276 5,200  Level FlightAware ADS-B
Fri 10:05:59 AM 32.1000 34.7390 124° Southeast 240 276 5,200 111 Level FlightAware ADS-B
Fri 10:06:23 AM 32.0830 34.7710 122° Southeast 219 252 5,300  Climbing FlightAware ADS-B
Fri 10:06:43 AM 32.0700 34.7890 130° Southeast 206 237 5,200 -750 Descending FlightAware ADS-B
Fri 10:07:03 AM 32.0550 34.8050 138° Southeast 201 231 4,800 -517 Descending FlightAware ADS-B
Fri 10:07:41 AM 32.0320 34.8300 137° Southeast 202 232 4,700  Descending FlightAware ADS-B
Fri 10:07:59 AM 32.0170 34.8470 136° Southeast 194 223 4,800  Climbing FlightAware ADS-B
Fri 10:08:13 AM 32.0080 34.8570 137° Southeast 189 217 4,700 -353 Descending FlightAware ADS-B
Fri 10:08:50 AM 31.9900 34.8790 134° Southeast 186 214 4,500 -1,345 Descending FlightAware ADS-B
Fri 10:09:11 AM 32.0180 34.8460 315° West 181 208 3,400 -2,364 Descending FlightAware ADS-B
Fri 10:09:23 AM 31.9880 34.9130 118° Southeast 172 198 3,200 -1,263 Descending FlightAware ADS-B
Fri 10:09:49 AM 31.9940 34.9360 73° East 164 189 2,600 -1,309 Descending FlightAware ADS-B
Fri 10:10:18 AM 32.0010 34.9630 73° East 165 190 2,000 -1,333 Descending FlightAware ADS-B
Fri 10:10:34 AM 32.0060 34.9700 50° Northeast 160 184 1,600 -1,385 Descending FlightAware ADS-B
Fri 10:10:44 AM 32.0170 34.9730 13° North 156 180 1,400 -600 Descending FlightAware ADS-B
Fri 10:10:54 AM 32.0220 34.9720 350° North 152 175 1,400 -375 Level FlightAware ADS-B
Fri 10:11:00 AM 32.0280 34.9690 337° Northwest 151 174 1,300 -375 Descending FlightAware ADS-B
Fri 10:11:10 AM 32.0330 34.9650 326° Northwest 152 175 1,300 -250 Level FlightAware ADS-B
Fri 10:11:24 AM 32.0380 34.9540 298° West 151 174 1,200 -154 Descending FlightAware ADS-B
Fri 10:11:49 AM 32.0410 34.9370 282° West 151 174 1,200  Level FlightAware ADS-B
Fri 10:14:00 AM 32.0095 34.8769 238° Southwest  Level Estimated
Fri 10:15:00 AM 32.0095 34.8769 270° West  Level Estimated

Login

Don't have an account? Register now (free) for customized features, flight alerts, and more!